<?xml version="1.0" encoding="UTF-8" standalone="no" ?>
<gpx xmlns="http://www.topografix.com/GPX/1/1" xmlns:xsi="http://www.w3.org/2001/XMLSchema-instance" xsi:schemaLocation="http://www.topografix.com/GPX/1/1 http://www.topografix.com/GPX/1/1/gpx.xsd" version="1.1" creator="VisuGPX - https://www.visugpx.com">
  <metadata>
    <name>VELARS sur OUCHE (variante 2)</name>
    <desc><![CDATA[Belle randonnée en milieu forestier, avec une réelle difficulté.. Nombreuses variantes possibles.]]></desc>
  </metadata>
  <trk>
    <name><![CDATA[2019-02-26-02]]></name>
    <trkseg>
      <trkpt lat="47.30853" lon="4.90312">
        <ele>393.3</ele>
        <time>2019-02-26T13:13:18Z</time>
      </trkpt>
      <trkpt lat="47.30853" lon="4.90312">
        <ele>393.3</ele>
        <time>2019-02-26T13:13:19Z</time>
      </trkpt>
      <trkpt lat="47.30846" lon="4.90303">
        <ele>393.7</ele>
        <time>2019-02-26T13:13:40Z</time>
      </trkpt>
      <trkpt lat="47.30837" lon="4.90302">
        <ele>394.2</ele>
        <time>2019-02-26T13:13:49Z</time>
      </trkpt>
      <trkpt lat="47.30827" lon="4.90302">
        <ele>395</ele>
        <time>2019-02-26T13:13:59Z</time>
      </trkpt>
      <trkpt lat="47.30818" lon="4.90309">
        <ele>395.8</ele>
        <time>2019-02-26T13:14:13Z</time>
      </trkpt>
      <trkpt lat="47.3081" lon="4.90316">
        <ele>396.6</ele>
        <time>2019-02-26T13:14:23Z</time>
      </trkpt>
      <trkpt lat="47.30801" lon="4.90322">
        <ele>397.4</ele>
        <time>2019-02-26T13:14:36Z</time>
      </trkpt>
      <trkpt lat="47.30792" lon="4.90328">
        <ele>398.1</ele>
        <time>2019-02-26T13:14:43Z</time>
      </trkpt>
      <trkpt lat="47.30784" lon="4.90335">
        <ele>398.7</ele>
        <time>2019-02-26T13:14:53Z</time>
      </trkpt>
      <trkpt lat="47.30776" lon="4.90342">
        <ele>399.1</ele>
        <time>2019-02-26T13:15:02Z</time>
      </trkpt>
      <trkpt lat="47.30767" lon="4.90349">
        <ele>399.7</ele>
        <time>2019-02-26T13:15:10Z</time>
      </trkpt>
      <trkpt lat="47.30759" lon="4.90354">
        <ele>400.2</ele>
        <time>2019-02-26T13:15:19Z</time>
      </trkpt>
      <trkpt lat="47.3075" lon="4.9036">
        <ele>400.7</ele>
        <time>2019-02-26T13:15:27Z</time>
      </trkpt>
      <trkpt lat="47.30741" lon="4.90365">
        <ele>401.2</ele>
        <time>2019-02-26T13:15:38Z</time>
      </trkpt>
      <trkpt lat="47.30732" lon="4.90371">
        <ele>401.6</ele>
        <time>2019-02-26T13:15:46Z</time>
      </trkpt>
      <trkpt lat="47.30724" lon="4.9038">
        <ele>401.6</ele>
        <time>2019-02-26T13:15:56Z</time>
      </trkpt>
      <trkpt lat="47.30717" lon="4.90389">
        <ele>401.4</ele>
        <time>2019-02-26T13:16:03Z</time>
      </trkpt>
      <trkpt lat="47.30709" lon="4.90396">
        <ele>401.2</ele>
        <time>2019-02-26T13:16:14Z</time>
      </trkpt>
      <trkpt lat="47.307" lon="4.90402">
        <ele>401.2</ele>
        <time>2019-02-26T13:16:24Z</time>
      </trkpt>
      <trkpt lat="47.30692" lon="4.90408">
        <ele>401</ele>
        <time>2019-02-26T13:16:31Z</time>
      </trkpt>
      <trkpt lat="47.30684" lon="4.90416">
        <ele>400.5</ele>
        <time>2019-02-26T13:16:39Z</time>
      </trkpt>
      <trkpt lat="47.30675" lon="4.90424">
        <ele>400</ele>
        <time>2019-02-26T13:16:49Z</time>
      </trkpt>
      <trkpt lat="47.30666" lon="4.90431">
        <ele>399.5</ele>
        <time>2019-02-26T13:16:56Z</time>
      </trkpt>
      <trkpt lat="47.30657" lon="4.90435">
        <ele>399.4</ele>
        <time>2019-02-26T13:17:05Z</time>
      </trkpt>
      <trkpt lat="47.30648" lon="4.90439">
        <ele>399.5</ele>
        <time>2019-02-26T13:17:13Z</time>
      </trkpt>
      <trkpt lat="47.30639" lon="4.90443">
        <ele>399.4</ele>
        <time>2019-02-26T13:17:24Z</time>
      </trkpt>
      <trkpt lat="47.3063" lon="4.90446">
        <ele>399.6</ele>
        <time>2019-02-26T13:17:35Z</time>
      </trkpt>
      <trkpt lat="47.3062" lon="4.90448">
        <ele>399.9</ele>
        <time>2019-02-26T13:17:46Z</time>
      </trkpt>
      <trkpt lat="47.3061" lon="4.90451">
        <ele>400</ele>
        <time>2019-02-26T13:17:55Z</time>
      </trkpt>
      <trkpt lat="47.30601" lon="4.90455">
        <ele>400</ele>
        <time>2019-02-26T13:18:03Z</time>
      </trkpt>
      <trkpt lat="47.30592" lon="4.9046">
        <ele>399.9</ele>
        <time>2019-02-26T13:18:10Z</time>
      </trkpt>
      <trkpt lat="47.30583" lon="4.90463">
        <ele>400</ele>
        <time>2019-02-26T13:18:18Z</time>
      </trkpt>
      <trkpt lat="47.30574" lon="4.90465">
        <ele>401.2</ele>
        <time>2019-02-26T13:18:25Z</time>
      </trkpt>
      <trkpt lat="47.30564" lon="4.90469">
        <ele>402.3</ele>
        <time>2019-02-26T13:18:32Z</time>
      </trkpt>
      <trkpt lat="47.30555" lon="4.90474">
        <ele>403</ele>
        <time>2019-02-26T13:18:39Z</time>
      </trkpt>
      <trkpt lat="47.30547" lon="4.9048">
        <ele>403.6</ele>
        <time>2019-02-26T13:18:46Z</time>
      </trkpt>
      <trkpt lat="47.30539" lon="4.90487">
        <ele>403.7</ele>
        <time>2019-02-26T13:18:55Z</time>
      </trkpt>
      <trkpt lat="47.3053" lon="4.90492">
        <ele>404.2</ele>
        <time>2019-02-26T13:19:05Z</time>
      </trkpt>
      <trkpt lat="47.30521" lon="4.90496">
        <ele>404.8</ele>
        <time>2019-02-26T13:19:12Z</time>
      </trkpt>
      <trkpt lat="47.30512" lon="4.90498">
        <ele>405.7</ele>
        <time>2019-02-26T13:19:19Z</time>
      </trkpt>
      <trkpt lat="47.30503" lon="4.90498">
        <ele>407.1</ele>
        <time>2019-02-26T13:19:28Z</time>
      </trkpt>
      <trkpt lat="47.30493" lon="4.90496">
        <ele>408.5</ele>
        <time>2019-02-26T13:19:38Z</time>
      </trkpt>
      <trkpt lat="47.30484" lon="4.90491">
        <ele>409.9</ele>
        <time>2019-02-26T13:19:47Z</time>
      </trkpt>
      <trkpt lat="47.30475" lon="4.90489">
        <ele>411</ele>
        <time>2019-02-26T13:19:55Z</time>
      </trkpt>
      <trkpt lat="47.30465" lon="4.9049">
        <ele>411.5</ele>
        <time>2019-02-26T13:20:03Z</time>
      </trkpt>
      <trkpt lat="47.30456" lon="4.90488">
        <ele>412.6</ele>
        <time>2019-02-26T13:20:13Z</time>
      </trkpt>
      <trkpt lat="47.30447" lon="4.90485">
        <ele>413.9</ele>
        <time>2019-02-26T13:20:26Z</time>
      </trkpt>
      <trkpt lat="47.30439" lon="4.90479">
        <ele>415.8</ele>
        <time>2019-02-26T13:20:41Z</time>
      </trkpt>
      <trkpt lat="47.3043" lon="4.90471">
        <ele>417.8</ele>
        <time>2019-02-26T13:20:55Z</time>
      </trkpt>
      <trkpt lat="47.30423" lon="4.90464">
        <ele>419.9</ele>
        <time>2019-02-26T13:21:05Z</time>
      </trkpt>
      <trkpt lat="47.30413" lon="4.90459">
        <ele>421.6</ele>
        <time>2019-02-26T13:21:14Z</time>
      </trkpt>
      <trkpt lat="47.30405" lon="4.90453">
        <ele>423.2</ele>
        <time>2019-02-26T13:21:51Z</time>
      </trkpt>
      <trkpt lat="47.30395" lon="4.90451">
        <ele>423.7</ele>
        <time>2019-02-26T13:22:01Z</time>
      </trkpt>
      <trkpt lat="47.30385" lon="4.90448">
        <ele>424.6</ele>
        <time>2019-02-26T13:22:08Z</time>
      </trkpt>
      <trkpt lat="47.30377" lon="4.90445">
        <ele>425.6</ele>
        <time>2019-02-26T13:22:15Z</time>
      </trkpt>
      <trkpt lat="47.30367" lon="4.90442">
        <ele>426.5</ele>
        <time>2019-02-26T13:22:27Z</time>
      </trkpt>
      <trkpt lat="47.30358" lon="4.90442">
        <ele>426.9</ele>
        <time>2019-02-26T13:22:37Z</time>
      </trkpt>
      <trkpt lat="47.30349" lon="4.9044">
        <ele>427.4</ele>
        <time>2019-02-26T13:22:47Z</time>
      </trkpt>
      <trkpt lat="47.3034" lon="4.90434">
        <ele>429.1</ele>
        <time>2019-02-26T13:23:29Z</time>
      </trkpt>
      <trkpt lat="47.30331" lon="4.90434">
        <ele>429.3</ele>
        <time>2019-02-26T13:23:40Z</time>
      </trkpt>
      <trkpt lat="47.30321" lon="4.9043">
        <ele>430.1</ele>
        <time>2019-02-26T13:23:49Z</time>
      </trkpt>
      <trkpt lat="47.30312" lon="4.90429">
        <ele>430.3</ele>
        <time>2019-02-26T13:23:56Z</time>
      </trkpt>
      <trkpt lat="47.30303" lon="4.90427">
        <ele>430.7</ele>
        <time>2019-02-26T13:24:04Z</time>
      </trkpt>
      <trkpt lat="47.30294" lon="4.90423">
        <ele>431.2</ele>
        <time>2019-02-26T13:24:12Z</time>
      </trkpt>
      <trkpt lat="47.30284" lon="4.90422">
        <ele>431.4</ele>
        <time>2019-02-26T13:24:23Z</time>
      </trkpt>
      <trkpt lat="47.30274" lon="4.90422">
        <ele>431.5</ele>
        <time>2019-02-26T13:24:34Z</time>
      </trkpt>
      <trkpt lat="47.30265" lon="4.90421">
        <ele>431.4</ele>
        <time>2019-02-26T13:24:42Z</time>
      </trkpt>
      <trkpt lat="47.30255" lon="4.90419">
        <ele>431.8</ele>
        <time>2019-02-26T13:24:50Z</time>
      </trkpt>
      <trkpt lat="47.30246" lon="4.90414">
        <ele>432.8</ele>
        <time>2019-02-26T13:25:01Z</time>
      </trkpt>
      <trkpt lat="47.30237" lon="4.90409">
        <ele>433.8</ele>
        <time>2019-02-26T13:25:10Z</time>
      </trkpt>
      <trkpt lat="47.30228" lon="4.90408">
        <ele>434.1</ele>
        <time>2019-02-26T13:25:17Z</time>
      </trkpt>
      <trkpt lat="47.30219" lon="4.90409">
        <ele>434.1</ele>
        <time>2019-02-26T13:25:24Z</time>
      </trkpt>
      <trkpt lat="47.30209" lon="4.90408">
        <ele>434.1</ele>
        <time>2019-02-26T13:25:31Z</time>
      </trkpt>
      <trkpt lat="47.302" lon="4.90408">
        <ele>434.1</ele>
        <time>2019-02-26T13:25:38Z</time>
      </trkpt>
      <trkpt lat="47.30189" lon="4.90405">
        <ele>434.7</ele>
        <time>2019-02-26T13:25:48Z</time>
      </trkpt>
      <trkpt lat="47.30179" lon="4.90403">
        <ele>435.3</ele>
        <time>2019-02-26T13:25:55Z</time>
      </trkpt>
      <trkpt lat="47.3017" lon="4.90402">
        <ele>435.3</ele>
        <time>2019-02-26T13:26:06Z</time>
      </trkpt>
      <trkpt lat="47.30161" lon="4.90402">
        <ele>435.2</ele>
        <time>2019-02-26T13:26:15Z</time>
      </trkpt>
      <trkpt lat="47.3015" lon="4.90402">
        <ele>435.1</ele>
        <time>2019-02-26T13:27:17Z</time>
      </trkpt>
      <trkpt lat="47.30141" lon="4.90397">
        <ele>436.3</ele>
        <time>2019-02-26T13:27:41Z</time>
      </trkpt>
      <trkpt lat="47.30132" lon="4.904">
        <ele>435.5</ele>
        <time>2019-02-26T13:27:49Z</time>
      </trkpt>
      <trkpt lat="47.30123" lon="4.904">
        <ele>435.4</ele>
        <time>2019-02-26T13:27:57Z</time>
      </trkpt>
      <trkpt lat="47.30113" lon="4.90402">
        <ele>434.8</ele>
        <time>2019-02-26T13:28:06Z</time>
      </trkpt>
      <trkpt lat="47.30104" lon="4.90404">
        <ele>434.3</ele>
        <time>2019-02-26T13:28:15Z</time>
      </trkpt>
      <trkpt lat="47.30094" lon="4.90407">
        <ele>433.6</ele>
        <time>2019-02-26T13:28:24Z</time>
      </trkpt>
      <trkpt lat="47.30084" lon="4.90407">
        <ele>433.5</ele>
        <time>2019-02-26T13:28:32Z</time>
      </trkpt>
      <trkpt lat="47.30075" lon="4.90407">
        <ele>433.5</ele>
        <time>2019-02-26T13:28:38Z</time>
      </trkpt>
      <trkpt lat="47.30066" lon="4.90408">
        <ele>433.7</ele>
        <time>2019-02-26T13:28:46Z</time>
      </trkpt>
      <trkpt lat="47.30056" lon="4.90408">
        <ele>434</ele>
        <time>2019-02-26T13:28:55Z</time>
      </trkpt>
      <trkpt lat="47.30047" lon="4.9041">
        <ele>433.8</ele>
        <time>2019-02-26T13:29:05Z</time>
      </trkpt>
      <trkpt lat="47.30038" lon="4.90411">
        <ele>434.1</ele>
        <time>2019-02-26T13:29:12Z</time>
      </trkpt>
      <trkpt lat="47.30028" lon="4.90412">
        <ele>434.1</ele>
        <time>2019-02-26T13:29:21Z</time>
      </trkpt>
      <trkpt lat="47.30018" lon="4.90412">
        <ele>434.5</ele>
        <time>2019-02-26T13:29:29Z</time>
      </trkpt>
      <trkpt lat="47.30008" lon="4.90411">
        <ele>435</ele>
        <time>2019-02-26T13:29:38Z</time>
      </trkpt>
      <trkpt lat="47.29999" lon="4.90409">
        <ele>435.6</ele>
        <time>2019-02-26T13:29:46Z</time>
      </trkpt>
      <trkpt lat="47.29989" lon="4.90411">
        <ele>435.8</ele>
        <time>2019-02-26T13:29:55Z</time>
      </trkpt>
      <trkpt lat="47.2998" lon="4.90414">
        <ele>435.8</ele>
        <time>2019-02-26T13:30:04Z</time>
      </trkpt>
      <trkpt lat="47.29971" lon="4.90418">
        <ele>435.2</ele>
        <time>2019-02-26T13:30:15Z</time>
      </trkpt>
      <trkpt lat="47.29962" lon="4.90424">
        <ele>434.6</ele>
        <time>2019-02-26T13:30:26Z</time>
      </trkpt>
      <trkpt lat="47.29954" lon="4.90429">
        <ele>434</ele>
        <time>2019-02-26T13:30:35Z</time>
      </trkpt>
      <trkpt lat="47.29946" lon="4.90435">
        <ele>433.4</ele>
        <time>2019-02-26T13:30:43Z</time>
      </trkpt>
      <trkpt lat="47.29937" lon="4.90442">
        <ele>432.8</ele>
        <time>2019-02-26T13:30:50Z</time>
      </trkpt>
      <trkpt lat="47.29929" lon="4.90448">
        <ele>432.3</ele>
        <time>2019-02-26T13:30:57Z</time>
      </trkpt>
      <trkpt lat="47.2992" lon="4.90452">
        <ele>432.3</ele>
        <time>2019-02-26T13:31:07Z</time>
      </trkpt>
      <trkpt lat="47.29911" lon="4.9046">
        <ele>431.8</ele>
        <time>2019-02-26T13:31:16Z</time>
      </trkpt>
      <trkpt lat="47.29904" lon="4.90469">
        <ele>431</ele>
        <time>2019-02-26T13:31:26Z</time>
      </trkpt>
      <trkpt lat="47.29899" lon="4.9048">
        <ele>429.9</ele>
        <time>2019-02-26T13:31:36Z</time>
      </trkpt>
      <trkpt lat="47.29896" lon="4.90494">
        <ele>428.1</ele>
        <time>2019-02-26T13:31:45Z</time>
      </trkpt>
      <trkpt lat="47.29894" lon="4.90508">
        <ele>426.2</ele>
        <time>2019-02-26T13:31:54Z</time>
      </trkpt>
      <trkpt lat="47.29894" lon="4.90522">
        <ele>424.2</ele>
        <time>2019-02-26T13:32:02Z</time>
      </trkpt>
      <trkpt lat="47.29894" lon="4.90536">
        <ele>422.3</ele>
        <time>2019-02-26T13:32:10Z</time>
      </trkpt>
      <trkpt lat="47.29895" lon="4.9055">
        <ele>420.2</ele>
        <time>2019-02-26T13:32:21Z</time>
      </trkpt>
      <trkpt lat="47.29894" lon="4.90563">
        <ele>418.6</ele>
        <time>2019-02-26T13:32:26Z</time>
      </trkpt>
      <trkpt lat="47.29892" lon="4.90577">
        <ele>417.2</ele>
        <time>2019-02-26T13:32:31Z</time>
      </trkpt>
      <trkpt lat="47.2989" lon="4.90591">
        <ele>416.2</ele>
        <time>2019-02-26T13:32:38Z</time>
      </trkpt>
      <trkpt lat="47.29889" lon="4.90605">
        <ele>415.8</ele>
        <time>2019-02-26T13:32:46Z</time>
      </trkpt>
      <trkpt lat="47.29888" lon="4.90619">
        <ele>415.3</ele>
        <time>2019-02-26T13:32:55Z</time>
      </trkpt>
      <trkpt lat="47.29888" lon="4.90634">
        <ele>414.7</ele>
        <time>2019-02-26T13:33:04Z</time>
      </trkpt>
      <trkpt lat="47.29887" lon="4.90649">
        <ele>414.3</ele>
        <time>2019-02-26T13:33:13Z</time>
      </trkpt>
      <trkpt lat="47.29885" lon="4.90662">
        <ele>414.2</ele>
        <time>2019-02-26T13:33:22Z</time>
      </trkpt>
      <trkpt lat="47.29883" lon="4.90676">
        <ele>414.4</ele>
        <time>2019-02-26T13:33:33Z</time>
      </trkpt>
      <trkpt lat="47.29882" lon="4.90689">
        <ele>414.7</ele>
        <time>2019-02-26T13:33:41Z</time>
      </trkpt>
      <trkpt lat="47.29878" lon="4.90703">
        <ele>415.3</ele>
        <time>2019-02-26T13:33:49Z</time>
      </trkpt>
      <trkpt lat="47.29876" lon="4.90716">
        <ele>416</ele>
        <time>2019-02-26T13:33:57Z</time>
      </trkpt>
      <trkpt lat="47.29873" lon="4.90731">
        <ele>416.5</ele>
        <time>2019-02-26T13:34:05Z</time>
      </trkpt>
      <trkpt lat="47.2987" lon="4.90745">
        <ele>417.2</ele>
        <time>2019-02-26T13:34:13Z</time>
      </trkpt>
      <trkpt lat="47.29868" lon="4.90758">
        <ele>417.9</ele>
        <time>2019-02-26T13:34:23Z</time>
      </trkpt>
      <trkpt lat="47.29866" lon="4.90772">
        <ele>418.7</ele>
        <time>2019-02-26T13:34:33Z</time>
      </trkpt>
      <trkpt lat="47.29863" lon="4.90785">
        <ele>419.4</ele>
        <time>2019-02-26T13:34:43Z</time>
      </trkpt>
      <trkpt lat="47.2986" lon="4.90797">
        <ele>420.3</ele>
        <time>2019-02-26T13:34:52Z</time>
      </trkpt>
      <trkpt lat="47.29857" lon="4.9081">
        <ele>421.2</ele>
        <time>2019-02-26T13:35:00Z</time>
      </trkpt>
      <trkpt lat="47.29852" lon="4.90824">
        <ele>422.4</ele>
        <time>2019-02-26T13:35:08Z</time>
      </trkpt>
      <trkpt lat="47.29848" lon="4.90836">
        <ele>423.4</ele>
        <time>2019-02-26T13:35:15Z</time>
      </trkpt>
      <trkpt lat="47.29843" lon="4.90848">
        <ele>424.6</ele>
        <time>2019-02-26T13:35:23Z</time>
      </trkpt>
      <trkpt lat="47.29837" lon="4.90859">
        <ele>425.8</ele>
        <time>2019-02-26T13:35:33Z</time>
      </trkpt>
      <trkpt lat="47.2983" lon="4.90869">
        <ele>426.8</ele>
        <time>2019-02-26T13:35:42Z</time>
      </trkpt>
      <trkpt lat="47.29824" lon="4.90878">
        <ele>427.3</ele>
        <time>2019-02-26T13:35:50Z</time>
      </trkpt>
      <trkpt lat="47.29815" lon="4.90886">
        <ele>427.8</ele>
        <time>2019-02-26T13:35:59Z</time>
      </trkpt>
      <trkpt lat="47.29806" lon="4.90889">
        <ele>428.5</ele>
        <time>2019-02-26T13:36:08Z</time>
      </trkpt>
      <trkpt lat="47.29796" lon="4.90891">
        <ele>429.2</ele>
        <time>2019-02-26T13:36:16Z</time>
      </trkpt>
      <trkpt lat="47.29786" lon="4.9089">
        <ele>430.1</ele>
        <time>2019-02-26T13:36:24Z</time>
      </trkpt>
      <trkpt lat="47.29777" lon="4.90892">
        <ele>430.7</ele>
        <time>2019-02-26T13:36:32Z</time>
      </trkpt>
      <trkpt lat="47.29768" lon="4.90894">
        <ele>431.4</ele>
        <time>2019-02-26T13:36:40Z</time>
      </trkpt>
      <trkpt lat="47.29759" lon="4.90894">
        <ele>432.2</ele>
        <time>2019-02-26T13:36:51Z</time>
      </trkpt>
      <trkpt lat="47.29749" lon="4.90894">
        <ele>432.8</ele>
        <time>2019-02-26T13:37:01Z</time>
      </trkpt>
      <trkpt lat="47.2974" lon="4.90893">
        <ele>433.7</ele>
        <time>2019-02-26T13:37:11Z</time>
      </trkpt>
      <trkpt lat="47.29731" lon="4.9089">
        <ele>434.6</ele>
        <time>2019-02-26T13:37:22Z</time>
      </trkpt>
      <trkpt lat="47.29721" lon="4.90889">
        <ele>435.4</ele>
        <time>2019-02-26T13:37:33Z</time>
      </trkpt>
      <trkpt lat="47.29712" lon="4.9089">
        <ele>436.1</ele>
        <time>2019-02-26T13:37:44Z</time>
      </trkpt>
      <trkpt lat="47.29702" lon="4.9089">
        <ele>436.9</ele>
        <time>2019-02-26T13:37:53Z</time>
      </trkpt>
      <trkpt lat="47.29693" lon="4.90889">
        <ele>437.8</ele>
        <time>2019-02-26T13:38:01Z</time>
      </trkpt>
      <trkpt lat="47.29683" lon="4.90888">
        <ele>438.7</ele>
        <time>2019-02-26T13:38:09Z</time>
      </trkpt>
      <trkpt lat="47.29674" lon="4.90886">
        <ele>439.8</ele>
        <time>2019-02-26T13:38:17Z</time>
      </trkpt>
      <trkpt lat="47.29664" lon="4.90884">
        <ele>440.7</ele>
        <time>2019-02-26T13:38:24Z</time>
      </trkpt>
      <trkpt lat="47.29655" lon="4.90884">
        <ele>441</ele>
        <time>2019-02-26T13:38:32Z</time>
      </trkpt>
      <trkpt lat="47.29645" lon="4.90886">
        <ele>441</ele>
        <time>2019-02-26T13:38:41Z</time>
      </trkpt>
      <trkpt lat="47.29636" lon="4.90887">
        <ele>441.1</ele>
        <time>2019-02-26T13:38:50Z</time>
      </trkpt>
      <trkpt lat="47.29626" lon="4.90887">
        <ele>441.5</ele>
        <time>2019-02-26T13:38:59Z</time>
      </trkpt>
      <trkpt lat="47.29617" lon="4.90885">
        <ele>441.8</ele>
        <time>2019-02-26T13:39:07Z</time>
      </trkpt>
      <trkpt lat="47.29607" lon="4.90884">
        <ele>442.2</ele>
        <time>2019-02-26T13:39:15Z</time>
      </trkpt>
      <trkpt lat="47.29598" lon="4.90884">
        <ele>442.7</ele>
        <time>2019-02-26T13:39:24Z</time>
      </trkpt>
      <trkpt lat="47.29588" lon="4.90882">
        <ele>443.2</ele>
        <time>2019-02-26T13:39:34Z</time>
      </trkpt>
      <trkpt lat="47.29578" lon="4.90881">
        <ele>443.5</ele>
        <time>2019-02-26T13:39:42Z</time>
      </trkpt>
      <trkpt lat="47.29569" lon="4.90879">
        <ele>443.6</ele>
        <time>2019-02-26T13:39:50Z</time>
      </trkpt>
      <trkpt lat="47.2956" lon="4.90877">
        <ele>444</ele>
        <time>2019-02-26T13:39:58Z</time>
      </trkpt>
      <trkpt lat="47.29551" lon="4.90875">
        <ele>444.3</ele>
        <time>2019-02-26T13:40:06Z</time>
      </trkpt>
      <trkpt lat="47.29541" lon="4.90872">
        <ele>444.5</ele>
        <time>2019-02-26T13:40:15Z</time>
      </trkpt>
      <trkpt lat="47.29531" lon="4.90871">
        <ele>444.6</ele>
        <time>2019-02-26T13:40:24Z</time>
      </trkpt>
      <trkpt lat="47.29522" lon="4.9087">
        <ele>444.8</ele>
        <time>2019-02-26T13:40:31Z</time>
      </trkpt>
      <trkpt lat="47.29512" lon="4.90868">
        <ele>445.2</ele>
        <time>2019-02-26T13:40:39Z</time>
      </trkpt>
      <trkpt lat="47.29503" lon="4.90865">
        <ele>445.7</ele>
        <time>2019-02-26T13:40:46Z</time>
      </trkpt>
      <trkpt lat="47.29494" lon="4.90861">
        <ele>446.6</ele>
        <time>2019-02-26T13:40:53Z</time>
      </trkpt>
      <trkpt lat="47.29484" lon="4.90859">
        <ele>447.3</ele>
        <time>2019-02-26T13:41:01Z</time>
      </trkpt>
      <trkpt lat="47.29475" lon="4.90856">
        <ele>448.5</ele>
        <time>2019-02-26T13:41:09Z</time>
      </trkpt>
      <trkpt lat="47.29465" lon="4.90853">
        <ele>449.5</ele>
        <time>2019-02-26T13:41:17Z</time>
      </trkpt>
      <trkpt lat="47.29456" lon="4.90849">
        <ele>450.7</ele>
        <time>2019-02-26T13:41:26Z</time>
      </trkpt>
      <trkpt lat="47.29447" lon="4.90842">
        <ele>452.5</ele>
        <time>2019-02-26T13:41:35Z</time>
      </trkpt>
      <trkpt lat="47.29438" lon="4.90838">
        <ele>454</ele>
        <time>2019-02-26T13:41:44Z</time>
      </trkpt>
      <trkpt lat="47.29429" lon="4.90835">
        <ele>455.1</ele>
        <time>2019-02-26T13:41:52Z</time>
      </trkpt>
      <trkpt lat="47.29419" lon="4.90834">
        <ele>455.9</ele>
        <time>2019-02-26T13:42:02Z</time>
      </trkpt>
      <trkpt lat="47.29409" lon="4.90831">
        <ele>456.5</ele>
        <time>2019-02-26T13:42:11Z</time>
      </trkpt>
      <trkpt lat="47.294" lon="4.90826">
        <ele>457.6</ele>
        <time>2019-02-26T13:42:20Z</time>
      </trkpt>
      <trkpt lat="47.29391" lon="4.90822">
        <ele>458.5</ele>
        <time>2019-02-26T13:42:28Z</time>
      </trkpt>
      <trkpt lat="47.29381" lon="4.9082">
        <ele>458.8</ele>
        <time>2019-02-26T13:42:36Z</time>
      </trkpt>
      <trkpt lat="47.29371" lon="4.90819">
        <ele>458.4</ele>
        <time>2019-02-26T13:42:44Z</time>
      </trkpt>
      <trkpt lat="47.29362" lon="4.90818">
        <ele>458.4</ele>
        <time>2019-02-26T13:42:52Z</time>
      </trkpt>
      <trkpt lat="47.29353" lon="4.90815">
        <ele>459</ele>
        <time>2019-02-26T13:43:01Z</time>
      </trkpt>
      <trkpt lat="47.29343" lon="4.90811">
        <ele>459.4</ele>
        <time>2019-02-26T13:43:10Z</time>
      </trkpt>
      <trkpt lat="47.29334" lon="4.90806">
        <ele>460.5</ele>
        <time>2019-02-26T13:43:19Z</time>
      </trkpt>
      <trkpt lat="47.29325" lon="4.90803">
        <ele>460.4</ele>
        <time>2019-02-26T13:43:27Z</time>
      </trkpt>
      <trkpt lat="47.29314" lon="4.90801">
        <ele>460</ele>
        <time>2019-02-26T13:43:35Z</time>
      </trkpt>
      <trkpt lat="47.29305" lon="4.90798">
        <ele>460</ele>
        <time>2019-02-26T13:43:42Z</time>
      </trkpt>
      <trkpt lat="47.29296" lon="4.90795">
        <ele>459.8</ele>
        <time>2019-02-26T13:43:50Z</time>
      </trkpt>
      <trkpt lat="47.29287" lon="4.90792">
        <ele>459.5</ele>
        <time>2019-02-26T13:43:59Z</time>
      </trkpt>
      <trkpt lat="47.29277" lon="4.90794">
        <ele>457.9</ele>
        <time>2019-02-26T13:44:08Z</time>
      </trkpt>
      <trkpt lat="47.29268" lon="4.90794">
        <ele>456.8</ele>
        <time>2019-02-26T13:44:15Z</time>
      </trkpt>
      <trkpt lat="47.29258" lon="4.90794">
        <ele>455.2</ele>
        <time>2019-02-26T13:44:23Z</time>
      </trkpt>
      <trkpt lat="47.29248" lon="4.90793">
        <ele>454.5</ele>
        <time>2019-02-26T13:44:30Z</time>
      </trkpt>
      <trkpt lat="47.29238" lon="4.90789">
        <ele>454.8</ele>
        <time>2019-02-26T13:44:37Z</time>
      </trkpt>
      <trkpt lat="47.2923" lon="4.90785">
        <ele>455.1</ele>
        <time>2019-02-26T13:44:44Z</time>
      </trkpt>
      <trkpt lat="47.29221" lon="4.90779">
        <ele>456</ele>
        <time>2019-02-26T13:44:51Z</time>
      </trkpt>
      <trkpt lat="47.29212" lon="4.90773">
        <ele>457.1</ele>
        <time>2019-02-26T13:44:59Z</time>
      </trkpt>
      <trkpt lat="47.29203" lon="4.90768">
        <ele>457.7</ele>
        <time>2019-02-26T13:45:09Z</time>
      </trkpt>
      <trkpt lat="47.29193" lon="4.90764">
        <ele>457.9</ele>
        <time>2019-02-26T13:45:21Z</time>
      </trkpt>
      <trkpt lat="47.29184" lon="4.90761">
        <ele>457.8</ele>
        <time>2019-02-26T13:45:30Z</time>
      </trkpt>
      <trkpt lat="47.29174" lon="4.90756">
        <ele>458.2</ele>
        <time>2019-02-26T13:45:38Z</time>
      </trkpt>
      <trkpt lat="47.29166" lon="4.9075">
        <ele>458.9</ele>
        <time>2019-02-26T13:45:48Z</time>
      </trkpt>
      <trkpt lat="47.29157" lon="4.90744">
        <ele>460</ele>
        <time>2019-02-26T13:45:57Z</time>
      </trkpt>
      <trkpt lat="47.29149" lon="4.9074">
        <ele>460.2</ele>
        <time>2019-02-26T13:46:04Z</time>
      </trkpt>
      <trkpt lat="47.2914" lon="4.90737">
        <ele>460.4</ele>
        <time>2019-02-26T13:46:12Z</time>
      </trkpt>
      <trkpt lat="47.2913" lon="4.90735">
        <ele>459.9</ele>
        <time>2019-02-26T13:46:19Z</time>
      </trkpt>
      <trkpt lat="47.29121" lon="4.90733">
        <ele>459.3</ele>
        <time>2019-02-26T13:46:26Z</time>
      </trkpt>
      <trkpt lat="47.29111" lon="4.90731">
        <ele>459</ele>
        <time>2019-02-26T13:46:34Z</time>
      </trkpt>
      <trkpt lat="47.29101" lon="4.90727">
        <ele>459</ele>
        <time>2019-02-26T13:46:42Z</time>
      </trkpt>
      <trkpt lat="47.29092" lon="4.90723">
        <ele>459.2</ele>
        <time>2019-02-26T13:46:49Z</time>
      </trkpt>
      <trkpt lat="47.29083" lon="4.90719">
        <ele>459.4</ele>
        <time>2019-02-26T13:46:56Z</time>
      </trkpt>
      <trkpt lat="47.29074" lon="4.90716">
        <ele>459.5</ele>
        <time>2019-02-26T13:47:04Z</time>
      </trkpt>
      <trkpt lat="47.29064" lon="4.90713">
        <ele>459.4</ele>
        <time>2019-02-26T13:47:12Z</time>
      </trkpt>
      <trkpt lat="47.29055" lon="4.9071">
        <ele>459.2</ele>
        <time>2019-02-26T13:47:20Z</time>
      </trkpt>
      <trkpt lat="47.29045" lon="4.90708">
        <ele>459</ele>
        <time>2019-02-26T13:47:29Z</time>
      </trkpt>
      <trkpt lat="47.29035" lon="4.90707">
        <ele>458</ele>
        <time>2019-02-26T13:47:37Z</time>
      </trkpt>
      <trkpt lat="47.29025" lon="4.90707">
        <ele>457.3</ele>
        <time>2019-02-26T13:47:46Z</time>
      </trkpt>
      <trkpt lat="47.29015" lon="4.90705">
        <ele>456.7</ele>
        <time>2019-02-26T13:47:55Z</time>
      </trkpt>
      <trkpt lat="47.29006" lon="4.90702">
        <ele>456.5</ele>
        <time>2019-02-26T13:48:03Z</time>
      </trkpt>
      <trkpt lat="47.28997" lon="4.90698">
        <ele>456.6</ele>
        <time>2019-02-26T13:48:12Z</time>
      </trkpt>
      <trkpt lat="47.28988" lon="4.90694">
        <ele>456.6</ele>
        <time>2019-02-26T13:48:20Z</time>
      </trkpt>
      <trkpt lat="47.28979" lon="4.9069">
        <ele>456.8</ele>
        <time>2019-02-26T13:48:27Z</time>
      </trkpt>
      <trkpt lat="47.2897" lon="4.90685">
        <ele>457.1</ele>
        <time>2019-02-26T13:48:35Z</time>
      </trkpt>
      <trkpt lat="47.28962" lon="4.90679">
        <ele>457.5</ele>
        <time>2019-02-26T13:48:45Z</time>
      </trkpt>
      <trkpt lat="47.28952" lon="4.90675">
        <ele>457.5</ele>
        <time>2019-02-26T13:48:54Z</time>
      </trkpt>
      <trkpt lat="47.28943" lon="4.9067">
        <ele>457.7</ele>
        <time>2019-02-26T13:49:02Z</time>
      </trkpt>
      <trkpt lat="47.28934" lon="4.90665">
        <ele>457.7</ele>
        <time>2019-02-26T13:49:11Z</time>
      </trkpt>
      <trkpt lat="47.28925" lon="4.90659">
        <ele>459.1</ele>
        <time>2019-02-26T13:49:21Z</time>
      </trkpt>
      <trkpt lat="47.28917" lon="4.90652">
        <ele>460.2</ele>
        <time>2019-02-26T13:49:30Z</time>
      </trkpt>
      <trkpt lat="47.28909" lon="4.90648">
        <ele>460.3</ele>
        <time>2019-02-26T13:49:37Z</time>
      </trkpt>
      <trkpt lat="47.289" lon="4.90645">
        <ele>460</ele>
        <time>2019-02-26T13:49:43Z</time>
      </trkpt>
      <trkpt lat="47.2889" lon="4.90642">
        <ele>459.4</ele>
        <time>2019-02-26T13:49:51Z</time>
      </trkpt>
      <trkpt lat="47.2888" lon="4.9064">
        <ele>458.8</ele>
        <time>2019-02-26T13:49:59Z</time>
      </trkpt>
      <trkpt lat="47.28871" lon="4.90637">
        <ele>458.2</ele>
        <time>2019-02-26T13:50:07Z</time>
      </trkpt>
      <trkpt lat="47.28862" lon="4.90636">
        <ele>457.3</ele>
        <time>2019-02-26T13:50:15Z</time>
      </trkpt>
      <trkpt lat="47.28852" lon="4.90633">
        <ele>456.6</ele>
        <time>2019-02-26T13:50:23Z</time>
      </trkpt>
      <trkpt lat="47.28842" lon="4.90628">
        <ele>456.6</ele>
        <time>2019-02-26T13:50:30Z</time>
      </trkpt>
      <trkpt lat="47.28833" lon="4.90622">
        <ele>457</ele>
        <time>2019-02-26T13:50:36Z</time>
      </trkpt>
      <trkpt lat="47.28825" lon="4.90616">
        <ele>457.6</ele>
        <time>2019-02-26T13:50:43Z</time>
      </trkpt>
      <trkpt lat="47.28816" lon="4.9061">
        <ele>458.3</ele>
        <time>2019-02-26T13:50:50Z</time>
      </trkpt>
      <trkpt lat="47.28807" lon="4.90604">
        <ele>458.8</ele>
        <time>2019-02-26T13:50:58Z</time>
      </trkpt>
      <trkpt lat="47.28799" lon="4.90599">
        <ele>459.1</ele>
        <time>2019-02-26T13:51:05Z</time>
      </trkpt>
      <trkpt lat="47.2879" lon="4.90594">
        <ele>459.5</ele>
        <time>2019-02-26T13:51:12Z</time>
      </trkpt>
      <trkpt lat="47.2878" lon="4.9059">
        <ele>459.2</ele>
        <time>2019-02-26T13:51:20Z</time>
      </trkpt>
      <trkpt lat="47.2877" lon="4.9059">
        <ele>457.9</ele>
        <time>2019-02-26T13:51:36Z</time>
      </trkpt>
      <trkpt lat="47.28761" lon="4.90589">
        <ele>457.1</ele>
        <time>2019-02-26T13:51:48Z</time>
      </trkpt>
      <trkpt lat="47.28753" lon="4.90584">
        <ele>457.3</ele>
        <time>2019-02-26T13:51:56Z</time>
      </trkpt>
      <trkpt lat="47.28744" lon="4.9058">
        <ele>457.4</ele>
        <time>2019-02-26T13:52:04Z</time>
      </trkpt>
      <trkpt lat="47.28735" lon="4.90578">
        <ele>456.9</ele>
        <time>2019-02-26T13:52:10Z</time>
      </trkpt>
      <trkpt lat="47.28726" lon="4.90573">
        <ele>456.7</ele>
        <time>2019-02-26T13:52:19Z</time>
      </trkpt>
      <trkpt lat="47.28716" lon="4.9057">
        <ele>456.5</ele>
        <time>2019-02-26T13:52:26Z</time>
      </trkpt>
      <trkpt lat="47.28706" lon="4.90568">
        <ele>455.4</ele>
        <time>2019-02-26T13:52:34Z</time>
      </trkpt>
      <trkpt lat="47.28697" lon="4.90566">
        <ele>454.7</ele>
        <time>2019-02-26T13:52:44Z</time>
      </trkpt>
      <trkpt lat="47.28688" lon="4.90566">
        <ele>453.3</ele>
        <time>2019-02-26T13:52:53Z</time>
      </trkpt>
      <trkpt lat="47.28678" lon="4.90564">
        <ele>452.2</ele>
        <time>2019-02-26T13:53:01Z</time>
      </trkpt>
      <trkpt lat="47.28668" lon="4.90561">
        <ele>451.4</ele>
        <time>2019-02-26T13:53:10Z</time>
      </trkpt>
      <trkpt lat="47.28658" lon="4.90558">
        <ele>451.6</ele>
        <time>2019-02-26T13:53:19Z</time>
      </trkpt>
      <trkpt lat="47.28649" lon="4.90555">
        <ele>451.5</ele>
        <time>2019-02-26T13:53:25Z</time>
      </trkpt>
      <trkpt lat="47.28639" lon="4.90553">
        <ele>451.4</ele>
        <time>2019-02-26T13:53:31Z</time>
      </trkpt>
      <trkpt lat="47.2863" lon="4.9055">
        <ele>451.4</ele>
        <time>2019-02-26T13:53:39Z</time>
      </trkpt>
      <trkpt lat="47.28622" lon="4.90544">
        <ele>452.1</ele>
        <time>2019-02-26T13:53:52Z</time>
      </trkpt>
      <trkpt lat="47.28614" lon="4.90537">
        <ele>453.4</ele>
        <time>2019-02-26T13:54:02Z</time>
      </trkpt>
      <trkpt lat="47.28605" lon="4.90531">
        <ele>454</ele>
        <time>2019-02-26T13:54:09Z</time>
      </trkpt>
      <trkpt lat="47.28595" lon="4.90527">
        <ele>454.5</ele>
        <time>2019-02-26T13:54:16Z</time>
      </trkpt>
      <trkpt lat="47.28586" lon="4.90524">
        <ele>454.4</ele>
        <time>2019-02-26T13:54:22Z</time>
      </trkpt>
      <trkpt lat="47.28577" lon="4.90522">
        <ele>453.8</ele>
        <time>2019-02-26T13:54:34Z</time>
      </trkpt>
      <trkpt lat="47.28567" lon="4.9052">
        <ele>452.6</ele>
        <time>2019-02-26T13:54:46Z</time>
      </trkpt>
      <trkpt lat="47.28558" lon="4.90516">
        <ele>452.2</ele>
        <time>2019-02-26T13:54:54Z</time>
      </trkpt>
      <trkpt lat="47.28549" lon="4.90511">
        <ele>452</ele>
        <time>2019-02-26T13:55:05Z</time>
      </trkpt>
      <trkpt lat="47.2854" lon="4.90506">
        <ele>451.7</ele>
        <time>2019-02-26T13:55:15Z</time>
      </trkpt>
      <trkpt lat="47.28532" lon="4.90501">
        <ele>451.7</ele>
        <time>2019-02-26T13:55:22Z</time>
      </trkpt>
      <trkpt lat="47.28522" lon="4.90499">
        <ele>450.9</ele>
        <time>2019-02-26T13:55:29Z</time>
      </trkpt>
      <trkpt lat="47.28513" lon="4.905">
        <ele>449.4</ele>
        <time>2019-02-26T13:55:39Z</time>
      </trkpt>
      <trkpt lat="47.28503" lon="4.90496">
        <ele>449.2</ele>
        <time>2019-02-26T13:55:48Z</time>
      </trkpt>
      <trkpt lat="47.28493" lon="4.90495">
        <ele>448.3</ele>
        <time>2019-02-26T13:55:54Z</time>
      </trkpt>
      <trkpt lat="47.28485" lon="4.90491">
        <ele>448.7</ele>
        <time>2019-02-26T13:56:03Z</time>
      </trkpt>
      <trkpt lat="47.28475" lon="4.90487">
        <ele>449.7</ele>
        <time>2019-02-26T13:56:09Z</time>
      </trkpt>
      <trkpt lat="47.28466" lon="4.90484">
        <ele>449.4</ele>
        <time>2019-02-26T13:56:16Z</time>
      </trkpt>
      <trkpt lat="47.28457" lon="4.90478">
        <ele>450.8</ele>
        <time>2019-02-26T13:56:25Z</time>
      </trkpt>
      <trkpt lat="47.28448" lon="4.90468">
        <ele>452.6</ele>
        <time>2019-02-26T13:56:32Z</time>
      </trkpt>
      <trkpt lat="47.28438" lon="4.90462">
        <ele>453.2</ele>
        <time>2019-02-26T13:56:37Z</time>
      </trkpt>
      <trkpt lat="47.28428" lon="4.9046">
        <ele>452.9</ele>
        <time>2019-02-26T13:56:46Z</time>
      </trkpt>
      <trkpt lat="47.28419" lon="4.90461">
        <ele>451.6</ele>
        <time>2019-02-26T13:56:58Z</time>
      </trkpt>
      <trkpt lat="47.28409" lon="4.9046">
        <ele>450.8</ele>
        <time>2019-02-26T13:57:08Z</time>
      </trkpt>
      <trkpt lat="47.28399" lon="4.90459">
        <ele>449.7</ele>
        <time>2019-02-26T13:57:14Z</time>
      </trkpt>
      <trkpt lat="47.28389" lon="4.90458">
        <ele>448.8</ele>
        <time>2019-02-26T13:57:22Z</time>
      </trkpt>
      <trkpt lat="47.28379" lon="4.90455">
        <ele>448.1</ele>
        <time>2019-02-26T13:57:32Z</time>
      </trkpt>
      <trkpt lat="47.2837" lon="4.90451">
        <ele>447.8</ele>
        <time>2019-02-26T13:57:40Z</time>
      </trkpt>
      <trkpt lat="47.28361" lon="4.90444">
        <ele>448.1</ele>
        <time>2019-02-26T13:57:44Z</time>
      </trkpt>
      <trkpt lat="47.28351" lon="4.90439">
        <ele>448.2</ele>
        <time>2019-02-26T13:57:51Z</time>
      </trkpt>
      <trkpt lat="47.28342" lon="4.90436">
        <ele>447.6</ele>
        <time>2019-02-26T13:57:58Z</time>
      </trkpt>
      <trkpt lat="47.28355" lon="4.90426">
        <ele>451.5</ele>
        <time>2019-02-26T14:01:12Z</time>
      </trkpt>
      <trkpt lat="47.28346" lon="4.90432">
        <ele>449.3</ele>
        <time>2019-02-26T14:01:23Z</time>
      </trkpt>
      <trkpt lat="47.28337" lon="4.90433">
        <ele>447.7</ele>
        <time>2019-02-26T14:01:36Z</time>
      </trkpt>
      <trkpt lat="47.28326" lon="4.90433">
        <ele>446.5</ele>
        <time>2019-02-26T14:01:46Z</time>
      </trkpt>
      <trkpt lat="47.28317" lon="4.90434">
        <ele>445.1</ele>
        <time>2019-02-26T14:01:52Z</time>
      </trkpt>
      <trkpt lat="47.28308" lon="4.9043">
        <ele>444.9</ele>
        <time>2019-02-26T14:02:02Z</time>
      </trkpt>
      <trkpt lat="47.28299" lon="4.90426">
        <ele>444.7</ele>
        <time>2019-02-26T14:02:11Z</time>
      </trkpt>
      <trkpt lat="47.28289" lon="4.9043">
        <ele>442.8</ele>
        <time>2019-02-26T14:02:18Z</time>
      </trkpt>
      <trkpt lat="47.2828" lon="4.90434">
        <ele>440.8</ele>
        <time>2019-02-26T14:02:27Z</time>
      </trkpt>
      <trkpt lat="47.2827" lon="4.90435">
        <ele>439.5</ele>
        <time>2019-02-26T14:02:36Z</time>
      </trkpt>
      <trkpt lat="47.28261" lon="4.90431">
        <ele>439.1</ele>
        <time>2019-02-26T14:02:43Z</time>
      </trkpt>
      <trkpt lat="47.28253" lon="4.90422">
        <ele>440.1</ele>
        <time>2019-02-26T14:02:53Z</time>
      </trkpt>
      <trkpt lat="47.28247" lon="4.90411">
        <ele>441.8</ele>
        <time>2019-02-26T14:03:02Z</time>
      </trkpt>
      <trkpt lat="47.28238" lon="4.90407">
        <ele>441.2</ele>
        <time>2019-02-26T14:03:09Z</time>
      </trkpt>
      <trkpt lat="47.28229" lon="4.90404">
        <ele>440.1</ele>
        <time>2019-02-26T14:03:17Z</time>
      </trkpt>
      <trkpt lat="47.28221" lon="4.90396">
        <ele>440.2</ele>
        <time>2019-02-26T14:03:26Z</time>
      </trkpt>
      <trkpt lat="47.28214" lon="4.90387">
        <ele>441.1</ele>
        <time>2019-02-26T14:03:33Z</time>
      </trkpt>
      <trkpt lat="47.28206" lon="4.90378">
        <ele>441.8</ele>
        <time>2019-02-26T14:03:42Z</time>
      </trkpt>
      <trkpt lat="47.282" lon="4.90368">
        <ele>442.9</ele>
        <time>2019-02-26T14:03:50Z</time>
      </trkpt>
      <trkpt lat="47.28192" lon="4.9036">
        <ele>443.5</ele>
        <time>2019-02-26T14:03:57Z</time>
      </trkpt>
      <trkpt lat="47.28185" lon="4.90352">
        <ele>444</ele>
        <time>2019-02-26T14:04:03Z</time>
      </trkpt>
      <trkpt lat="47.28177" lon="4.90346">
        <ele>444.1</ele>
        <time>2019-02-26T14:04:09Z</time>
      </trkpt>
      <trkpt lat="47.28168" lon="4.9034">
        <ele>443.9</ele>
        <time>2019-02-26T14:04:17Z</time>
      </trkpt>
      <trkpt lat="47.2816" lon="4.90334">
        <ele>443.9</ele>
        <time>2019-02-26T14:04:27Z</time>
      </trkpt>
      <trkpt lat="47.28151" lon="4.90329">
        <ele>444.2</ele>
        <time>2019-02-26T14:04:36Z</time>
      </trkpt>
      <trkpt lat="47.28142" lon="4.90324">
        <ele>444.1</ele>
        <time>2019-02-26T14:04:48Z</time>
      </trkpt>
      <trkpt lat="47.28133" lon="4.90321">
        <ele>443.9</ele>
        <time>2019-02-26T14:04:55Z</time>
      </trkpt>
      <trkpt lat="47.28125" lon="4.90315">
        <ele>444.7</ele>
        <time>2019-02-26T14:05:04Z</time>
      </trkpt>
      <trkpt lat="47.28117" lon="4.90309">
        <ele>445.2</ele>
        <time>2019-02-26T14:05:12Z</time>
      </trkpt>
      <trkpt lat="47.28108" lon="4.90303">
        <ele>445.9</ele>
        <time>2019-02-26T14:05:22Z</time>
      </trkpt>
      <trkpt lat="47.281" lon="4.90296">
        <ele>446.8</ele>
        <time>2019-02-26T14:05:33Z</time>
      </trkpt>
      <trkpt lat="47.28091" lon="4.90292">
        <ele>447</ele>
        <time>2019-02-26T14:05:43Z</time>
      </trkpt>
      <trkpt lat="47.28082" lon="4.90286">
        <ele>447.3</ele>
        <time>2019-02-26T14:05:51Z</time>
      </trkpt>
      <trkpt lat="47.28073" lon="4.9028">
        <ele>447.5</ele>
        <time>2019-02-26T14:06:01Z</time>
      </trkpt>
      <trkpt lat="47.28064" lon="4.90274">
        <ele>447.5</ele>
        <time>2019-02-26T14:06:09Z</time>
      </trkpt>
      <trkpt lat="47.28057" lon="4.90267">
        <ele>448</ele>
        <time>2019-02-26T14:06:20Z</time>
      </trkpt>
      <trkpt lat="47.28049" lon="4.90256">
        <ele>449.1</ele>
        <time>2019-02-26T14:06:29Z</time>
      </trkpt>
      <trkpt lat="47.28042" lon="4.90247">
        <ele>450.1</ele>
        <time>2019-02-26T14:06:37Z</time>
      </trkpt>
      <trkpt lat="47.28034" lon="4.9024">
        <ele>449.9</ele>
        <time>2019-02-26T14:06:59Z</time>
      </trkpt>
      <trkpt lat="47.28026" lon="4.90231">
        <ele>450.6</ele>
        <time>2019-02-26T14:07:12Z</time>
      </trkpt>
      <trkpt lat="47.2802" lon="4.90221">
        <ele>451.7</ele>
        <time>2019-02-26T14:07:24Z</time>
      </trkpt>
      <trkpt lat="47.28012" lon="4.90214">
        <ele>452</ele>
        <time>2019-02-26T14:07:33Z</time>
      </trkpt>
      <trkpt lat="47.28003" lon="4.90208">
        <ele>451.6</ele>
        <time>2019-02-26T14:07:40Z</time>
      </trkpt>
      <trkpt lat="47.27996" lon="4.90199">
        <ele>452.4</ele>
        <time>2019-02-26T14:07:52Z</time>
      </trkpt>
      <trkpt lat="47.27991" lon="4.90187">
        <ele>454.7</ele>
        <time>2019-02-26T14:08:07Z</time>
      </trkpt>
      <trkpt lat="47.27982" lon="4.90179">
        <ele>455.2</ele>
        <time>2019-02-26T14:08:15Z</time>
      </trkpt>
      <trkpt lat="47.27974" lon="4.90173">
        <ele>455</ele>
        <time>2019-02-26T14:08:21Z</time>
      </trkpt>
      <trkpt lat="47.27966" lon="4.90165">
        <ele>455.4</ele>
        <time>2019-02-26T14:08:29Z</time>
      </trkpt>
      <trkpt lat="47.27958" lon="4.90159">
        <ele>455.9</ele>
        <time>2019-02-26T14:08:38Z</time>
      </trkpt>
      <trkpt lat="47.27949" lon="4.90152">
        <ele>455.9</ele>
        <time>2019-02-26T14:08:45Z</time>
      </trkpt>
      <trkpt lat="47.2794" lon="4.90146">
        <ele>455.6</ele>
        <time>2019-02-26T14:08:54Z</time>
      </trkpt>
      <trkpt lat="47.27933" lon="4.90137">
        <ele>456.4</ele>
        <time>2019-02-26T14:09:07Z</time>
      </trkpt>
      <trkpt lat="47.27926" lon="4.90126">
        <ele>458.1</ele>
        <time>2019-02-26T14:09:14Z</time>
      </trkpt>
      <trkpt lat="47.27918" lon="4.90119">
        <ele>458.1</ele>
        <time>2019-02-26T14:09:22Z</time>
      </trkpt>
      <trkpt lat="47.27908" lon="4.90115">
        <ele>457.1</ele>
        <time>2019-02-26T14:09:30Z</time>
      </trkpt>
      <trkpt lat="47.27899" lon="4.90107">
        <ele>457.3</ele>
        <time>2019-02-26T14:09:37Z</time>
      </trkpt>
      <trkpt lat="47.27891" lon="4.901">
        <ele>457.4</ele>
        <time>2019-02-26T14:09:42Z</time>
      </trkpt>
      <trkpt lat="47.27883" lon="4.90093">
        <ele>457.7</ele>
        <time>2019-02-26T14:09:49Z</time>
      </trkpt>
      <trkpt lat="47.27874" lon="4.90087">
        <ele>457.3</ele>
        <time>2019-02-26T14:09:58Z</time>
      </trkpt>
      <trkpt lat="47.27865" lon="4.9008">
        <ele>457.6</ele>
        <time>2019-02-26T14:10:07Z</time>
      </trkpt>
      <trkpt lat="47.27858" lon="4.90073">
        <ele>457.8</ele>
        <time>2019-02-26T14:10:16Z</time>
      </trkpt>
      <trkpt lat="47.2785" lon="4.90065">
        <ele>458.5</ele>
        <time>2019-02-26T14:10:24Z</time>
      </trkpt>
      <trkpt lat="47.27843" lon="4.90056">
        <ele>459.3</ele>
        <time>2019-02-26T14:10:32Z</time>
      </trkpt>
      <trkpt lat="47.27835" lon="4.90049">
        <ele>459.2</ele>
        <time>2019-02-26T14:10:40Z</time>
      </trkpt>
      <trkpt lat="47.27827" lon="4.90043">
        <ele>459</ele>
        <time>2019-02-26T14:10:48Z</time>
      </trkpt>
      <trkpt lat="47.27817" lon="4.90038">
        <ele>458.5</ele>
        <time>2019-02-26T14:10:56Z</time>
      </trkpt>
      <trkpt lat="47.27807" lon="4.90035">
        <ele>457.7</ele>
        <time>2019-02-26T14:11:04Z</time>
      </trkpt>
      <trkpt lat="47.27798" lon="4.90036">
        <ele>455.8</ele>
        <time>2019-02-26T14:11:11Z</time>
      </trkpt>
      <trkpt lat="47.2779" lon="4.9004">
        <ele>452.9</ele>
        <time>2019-02-26T14:11:19Z</time>
      </trkpt>
      <trkpt lat="47.27781" lon="4.90046">
        <ele>450</ele>
        <time>2019-02-26T14:11:26Z</time>
      </trkpt>
      <trkpt lat="47.27773" lon="4.90052">
        <ele>446.6</ele>
        <time>2019-02-26T14:11:34Z</time>
      </trkpt>
      <trkpt lat="47.27764" lon="4.90059">
        <ele>443.3</ele>
        <time>2019-02-26T14:11:44Z</time>
      </trkpt>
      <trkpt lat="47.27755" lon="4.90065">
        <ele>440</ele>
        <time>2019-02-26T14:11:54Z</time>
      </trkpt>
      <trkpt lat="47.27746" lon="4.9007">
        <ele>437.8</ele>
        <time>2019-02-26T14:12:02Z</time>
      </trkpt>
      <trkpt lat="47.27737" lon="4.90077">
        <ele>436.6</ele>
        <time>2019-02-26T14:12:11Z</time>
      </trkpt>
      <trkpt lat="47.27729" lon="4.90084">
        <ele>435.6</ele>
        <time>2019-02-26T14:12:21Z</time>
      </trkpt>
      <trkpt lat="47.2772" lon="4.90082">
        <ele>436.5</ele>
        <time>2019-02-26T14:12:35Z</time>
      </trkpt>
      <trkpt lat="47.27713" lon="4.90074">
        <ele>439.1</ele>
        <time>2019-02-26T14:13:43Z</time>
      </trkpt>
      <trkpt lat="47.27708" lon="4.90062">
        <ele>442.1</ele>
        <time>2019-02-26T14:13:58Z</time>
      </trkpt>
      <trkpt lat="47.27705" lon="4.90048">
        <ele>445.5</ele>
        <time>2019-02-26T14:14:10Z</time>
      </trkpt>
      <trkpt lat="47.27707" lon="4.90035">
        <ele>448.5</ele>
        <time>2019-02-26T14:14:25Z</time>
      </trkpt>
      <trkpt lat="47.27699" lon="4.90028">
        <ele>450.3</ele>
        <time>2019-02-26T14:18:29Z</time>
      </trkpt>
      <trkpt lat="47.2769" lon="4.90021">
        <ele>452</ele>
        <time>2019-02-26T14:18:39Z</time>
      </trkpt>
      <trkpt lat="47.27682" lon="4.90015">
        <ele>453.7</ele>
        <time>2019-02-26T14:18:47Z</time>
      </trkpt>
      <trkpt lat="47.27674" lon="4.90008">
        <ele>455.3</ele>
        <time>2019-02-26T14:18:57Z</time>
      </trkpt>
      <trkpt lat="47.27667" lon="4.9">
        <ele>456.9</ele>
        <time>2019-02-26T14:19:10Z</time>
      </trkpt>
      <trkpt lat="47.27658" lon="4.89992">
        <ele>459.3</ele>
        <time>2019-02-26T14:19:21Z</time>
      </trkpt>
      <trkpt lat="47.2765" lon="4.89985">
        <ele>460.7</ele>
        <time>2019-02-26T14:19:29Z</time>
      </trkpt>
      <trkpt lat="47.27642" lon="4.89979">
        <ele>462</ele>
        <time>2019-02-26T14:19:36Z</time>
      </trkpt>
      <trkpt lat="47.27633" lon="4.89976">
        <ele>462.1</ele>
        <time>2019-02-26T14:19:44Z</time>
      </trkpt>
      <trkpt lat="47.27624" lon="4.89971">
        <ele>462.8</ele>
        <time>2019-02-26T14:19:52Z</time>
      </trkpt>
      <trkpt lat="47.27616" lon="4.89965">
        <ele>463.5</ele>
        <time>2019-02-26T14:20:01Z</time>
      </trkpt>
      <trkpt lat="47.27608" lon="4.89958">
        <ele>464.6</ele>
        <time>2019-02-26T14:20:11Z</time>
      </trkpt>
      <trkpt lat="47.27602" lon="4.89948">
        <ele>466.5</ele>
        <time>2019-02-26T14:20:23Z</time>
      </trkpt>
      <trkpt lat="47.27593" lon="4.89941">
        <ele>466.8</ele>
        <time>2019-02-26T14:20:33Z</time>
      </trkpt>
      <trkpt lat="47.27584" lon="4.89934">
        <ele>467.4</ele>
        <time>2019-02-26T14:20:45Z</time>
      </trkpt>
      <trkpt lat="47.27577" lon="4.89927">
        <ele>468.1</ele>
        <time>2019-02-26T14:20:58Z</time>
      </trkpt>
      <trkpt lat="47.27568" lon="4.89919">
        <ele>468.7</ele>
        <time>2019-02-26T14:21:12Z</time>
      </trkpt>
      <trkpt lat="47.2756" lon="4.89914">
        <ele>468.5</ele>
        <time>2019-02-26T14:21:19Z</time>
      </trkpt>
      <trkpt lat="47.27551" lon="4.8991">
        <ele>468.4</ele>
        <time>2019-02-26T14:21:25Z</time>
      </trkpt>
      <trkpt lat="47.27541" lon="4.89907">
        <ele>468.2</ele>
        <time>2019-02-26T14:21:34Z</time>
      </trkpt>
      <trkpt lat="47.27532" lon="4.89904">
        <ele>467.7</ele>
        <time>2019-02-26T14:21:42Z</time>
      </trkpt>
      <trkpt lat="47.27523" lon="4.899">
        <ele>467.6</ele>
        <time>2019-02-26T14:22:18Z</time>
      </trkpt>
      <trkpt lat="47.27517" lon="4.8989">
        <ele>469.5</ele>
        <time>2019-02-26T14:23:24Z</time>
      </trkpt>
      <trkpt lat="47.27517" lon="4.89876">
        <ele>473.1</ele>
        <time>2019-02-26T14:23:43Z</time>
      </trkpt>
      <trkpt lat="47.27517" lon="4.89863">
        <ele>476.8</ele>
        <time>2019-02-26T14:24:04Z</time>
      </trkpt>
      <trkpt lat="47.27513" lon="4.89851">
        <ele>479.7</ele>
        <time>2019-02-26T14:24:43Z</time>
      </trkpt>
      <trkpt lat="47.27508" lon="4.8984">
        <ele>481.9</ele>
        <time>2019-02-26T14:25:41Z</time>
      </trkpt>
      <trkpt lat="47.27504" lon="4.89828">
        <ele>484.7</ele>
        <time>2019-02-26T14:26:01Z</time>
      </trkpt>
      <trkpt lat="47.27505" lon="4.89814">
        <ele>487.6</ele>
        <time>2019-02-26T14:26:56Z</time>
      </trkpt>
      <trkpt lat="47.27505" lon="4.89801">
        <ele>490.6</ele>
        <time>2019-02-26T14:27:45Z</time>
      </trkpt>
      <trkpt lat="47.27504" lon="4.89786">
        <ele>493.2</ele>
        <time>2019-02-26T14:29:01Z</time>
      </trkpt>
      <trkpt lat="47.27508" lon="4.89774">
        <ele>496.2</ele>
        <time>2019-02-26T14:29:45Z</time>
      </trkpt>
      <trkpt lat="47.27518" lon="4.89763">
        <ele>498.7</ele>
        <time>2019-02-26T14:30:44Z</time>
      </trkpt>
      <trkpt lat="47.27526" lon="4.89758">
        <ele>499.8</ele>
        <time>2019-02-26T14:30:55Z</time>
      </trkpt>
      <trkpt lat="47.27536" lon="4.89755">
        <ele>500.7</ele>
        <time>2019-02-26T14:31:05Z</time>
      </trkpt>
      <trkpt lat="47.27548" lon="4.89753">
        <ele>501.1</ele>
        <time>2019-02-26T14:32:07Z</time>
      </trkpt>
      <trkpt lat="47.27557" lon="4.89748">
        <ele>501.9</ele>
        <time>2019-02-26T14:32:44Z</time>
      </trkpt>
      <trkpt lat="47.27567" lon="4.89745">
        <ele>502.2</ele>
        <time>2019-02-26T14:33:32Z</time>
      </trkpt>
      <trkpt lat="47.27576" lon="4.89744">
        <ele>502.5</ele>
        <time>2019-02-26T14:33:54Z</time>
      </trkpt>
      <trkpt lat="47.27585" lon="4.89741">
        <ele>502.9</ele>
        <time>2019-02-26T14:34:06Z</time>
      </trkpt>
      <trkpt lat="47.27593" lon="4.89734">
        <ele>504.3</ele>
        <time>2019-02-26T14:34:51Z</time>
      </trkpt>
      <trkpt lat="47.27595" lon="4.89721">
        <ele>505.4</ele>
        <time>2019-02-26T14:35:58Z</time>
      </trkpt>
      <trkpt lat="47.27602" lon="4.89713">
        <ele>506.6</ele>
        <time>2019-02-26T14:44:14Z</time>
      </trkpt>
      <trkpt lat="47.2761" lon="4.89705">
        <ele>507.9</ele>
        <time>2019-02-26T14:44:20Z</time>
      </trkpt>
      <trkpt lat="47.2762" lon="4.89704">
        <ele>508.7</ele>
        <time>2019-02-26T14:44:33Z</time>
      </trkpt>
      <trkpt lat="47.27629" lon="4.897">
        <ele>509.5</ele>
        <time>2019-02-26T14:44:43Z</time>
      </trkpt>
      <trkpt lat="47.27637" lon="4.89695">
        <ele>510.5</ele>
        <time>2019-02-26T14:44:53Z</time>
      </trkpt>
      <trkpt lat="47.27646" lon="4.89692">
        <ele>511.3</ele>
        <time>2019-02-26T14:45:01Z</time>
      </trkpt>
      <trkpt lat="47.27656" lon="4.89688">
        <ele>512.2</ele>
        <time>2019-02-26T14:45:12Z</time>
      </trkpt>
      <trkpt lat="47.27665" lon="4.89689">
        <ele>512.8</ele>
        <time>2019-02-26T14:45:36Z</time>
      </trkpt>
      <trkpt lat="47.27674" lon="4.89688">
        <ele>514</ele>
        <time>2019-02-26T14:45:45Z</time>
      </trkpt>
      <trkpt lat="47.27684" lon="4.89687">
        <ele>515.4</ele>
        <time>2019-02-26T14:45:52Z</time>
      </trkpt>
      <trkpt lat="47.27693" lon="4.89688">
        <ele>516.6</ele>
        <time>2019-02-26T14:45:59Z</time>
      </trkpt>
      <trkpt lat="47.27703" lon="4.89689">
        <ele>517.9</ele>
        <time>2019-02-26T14:46:07Z</time>
      </trkpt>
      <trkpt lat="47.27712" lon="4.89686">
        <ele>519.4</ele>
        <time>2019-02-26T14:46:17Z</time>
      </trkpt>
      <trkpt lat="47.27721" lon="4.89681">
        <ele>520.9</ele>
        <time>2019-02-26T14:46:28Z</time>
      </trkpt>
      <trkpt lat="47.2773" lon="4.89676">
        <ele>522.5</ele>
        <time>2019-02-26T14:46:37Z</time>
      </trkpt>
      <trkpt lat="47.27739" lon="4.8967">
        <ele>524.2</ele>
        <time>2019-02-26T14:46:46Z</time>
      </trkpt>
      <trkpt lat="47.27748" lon="4.89665">
        <ele>525.7</ele>
        <time>2019-02-26T14:47:00Z</time>
      </trkpt>
      <trkpt lat="47.27755" lon="4.89656">
        <ele>526.2</ele>
        <time>2019-02-26T14:47:09Z</time>
      </trkpt>
      <trkpt lat="47.27763" lon="4.89647">
        <ele>526.8</ele>
        <time>2019-02-26T14:47:19Z</time>
      </trkpt>
      <trkpt lat="47.27771" lon="4.89639">
        <ele>527.4</ele>
        <time>2019-02-26T14:48:18Z</time>
      </trkpt>
      <trkpt lat="47.27777" lon="4.8963">
        <ele>527.9</ele>
        <time>2019-02-26T14:48:27Z</time>
      </trkpt>
      <trkpt lat="47.27784" lon="4.89619">
        <ele>528.3</ele>
        <time>2019-02-26T14:48:36Z</time>
      </trkpt>
      <trkpt lat="47.27792" lon="4.89612">
        <ele>529</ele>
        <time>2019-02-26T14:48:45Z</time>
      </trkpt>
      <trkpt lat="47.27801" lon="4.89604">
        <ele>529.8</ele>
        <time>2019-02-26T14:48:54Z</time>
      </trkpt>
      <trkpt lat="47.27808" lon="4.89596">
        <ele>530.5</ele>
        <time>2019-02-26T14:49:07Z</time>
      </trkpt>
      <trkpt lat="47.27816" lon="4.89586">
        <ele>531.1</ele>
        <time>2019-02-26T14:49:17Z</time>
      </trkpt>
      <trkpt lat="47.27822" lon="4.89575">
        <ele>530.5</ele>
        <time>2019-02-26T14:49:26Z</time>
      </trkpt>
      <trkpt lat="47.27828" lon="4.89565">
        <ele>529.9</ele>
        <time>2019-02-26T14:49:35Z</time>
      </trkpt>
      <trkpt lat="47.27835" lon="4.89556">
        <ele>529.5</ele>
        <time>2019-02-26T14:49:43Z</time>
      </trkpt>
      <trkpt lat="47.27841" lon="4.89545">
        <ele>528.4</ele>
        <time>2019-02-26T14:50:18Z</time>
      </trkpt>
      <trkpt lat="47.27847" lon="4.89533">
        <ele>527.3</ele>
        <time>2019-02-26T14:50:27Z</time>
      </trkpt>
      <trkpt lat="47.27855" lon="4.89525">
        <ele>526.9</ele>
        <time>2019-02-26T14:50:34Z</time>
      </trkpt>
      <trkpt lat="47.27864" lon="4.89517">
        <ele>526.6</ele>
        <time>2019-02-26T14:50:42Z</time>
      </trkpt>
      <trkpt lat="47.27873" lon="4.89512">
        <ele>526.7</ele>
        <time>2019-02-26T14:50:50Z</time>
      </trkpt>
      <trkpt lat="47.27881" lon="4.89505">
        <ele>526.6</ele>
        <time>2019-02-26T14:51:01Z</time>
      </trkpt>
      <trkpt lat="47.27891" lon="4.89504">
        <ele>527.2</ele>
        <time>2019-02-26T14:51:10Z</time>
      </trkpt>
      <trkpt lat="47.279" lon="4.89499">
        <ele>527.4</ele>
        <time>2019-02-26T14:51:17Z</time>
      </trkpt>
      <trkpt lat="47.27909" lon="4.89494">
        <ele>527.1</ele>
        <time>2019-02-26T14:51:24Z</time>
      </trkpt>
      <trkpt lat="47.27917" lon="4.89488">
        <ele>526.7</ele>
        <time>2019-02-26T14:51:32Z</time>
      </trkpt>
      <trkpt lat="47.27924" lon="4.8948">
        <ele>526.1</ele>
        <time>2019-02-26T14:51:39Z</time>
      </trkpt>
      <trkpt lat="47.27933" lon="4.89473">
        <ele>525.4</ele>
        <time>2019-02-26T14:51:46Z</time>
      </trkpt>
      <trkpt lat="47.27942" lon="4.89466">
        <ele>525</ele>
        <time>2019-02-26T14:51:54Z</time>
      </trkpt>
      <trkpt lat="47.27951" lon="4.89462">
        <ele>524.8</ele>
        <time>2019-02-26T14:52:02Z</time>
      </trkpt>
      <trkpt lat="47.2796" lon="4.89458">
        <ele>525.1</ele>
        <time>2019-02-26T14:52:10Z</time>
      </trkpt>
      <trkpt lat="47.27969" lon="4.89456">
        <ele>525.5</ele>
        <time>2019-02-26T14:52:18Z</time>
      </trkpt>
      <trkpt lat="47.27979" lon="4.89454">
        <ele>525.8</ele>
        <time>2019-02-26T14:52:26Z</time>
      </trkpt>
      <trkpt lat="47.27988" lon="4.89451">
        <ele>526.2</ele>
        <time>2019-02-26T14:52:35Z</time>
      </trkpt>
      <trkpt lat="47.27998" lon="4.89446">
        <ele>526.3</ele>
        <time>2019-02-26T14:52:44Z</time>
      </trkpt>
      <trkpt lat="47.28008" lon="4.89441">
        <ele>525.4</ele>
        <time>2019-02-26T14:52:53Z</time>
      </trkpt>
      <trkpt lat="47.28017" lon="4.89436">
        <ele>524.2</ele>
        <time>2019-02-26T14:53:00Z</time>
      </trkpt>
      <trkpt lat="47.28026" lon="4.89431">
        <ele>523.3</ele>
        <time>2019-02-26T14:53:07Z</time>
      </trkpt>
      <trkpt lat="47.28036" lon="4.89428">
        <ele>522.5</ele>
        <time>2019-02-26T14:53:15Z</time>
      </trkpt>
      <trkpt lat="47.28045" lon="4.89422">
        <ele>521.6</ele>
        <time>2019-02-26T14:53:23Z</time>
      </trkpt>
      <trkpt lat="47.28053" lon="4.89416">
        <ele>520.7</ele>
        <time>2019-02-26T14:53:32Z</time>
      </trkpt>
      <trkpt lat="47.28062" lon="4.89409">
        <ele>520.1</ele>
        <time>2019-02-26T14:53:41Z</time>
      </trkpt>
      <trkpt lat="47.28071" lon="4.89402">
        <ele>519.7</ele>
        <time>2019-02-26T14:53:48Z</time>
      </trkpt>
      <trkpt lat="47.2808" lon="4.89395">
        <ele>519.3</ele>
        <time>2019-02-26T14:53:56Z</time>
      </trkpt>
      <trkpt lat="47.28088" lon="4.89388">
        <ele>518.8</ele>
        <time>2019-02-26T14:54:03Z</time>
      </trkpt>
      <trkpt lat="47.28097" lon="4.89381">
        <ele>518.1</ele>
        <time>2019-02-26T14:54:11Z</time>
      </trkpt>
      <trkpt lat="47.28105" lon="4.89373">
        <ele>517.5</ele>
        <time>2019-02-26T14:54:19Z</time>
      </trkpt>
      <trkpt lat="47.28113" lon="4.89365">
        <ele>517</ele>
        <time>2019-02-26T14:54:25Z</time>
      </trkpt>
      <trkpt lat="47.2812" lon="4.89355">
        <ele>516.6</ele>
        <time>2019-02-26T14:54:32Z</time>
      </trkpt>
      <trkpt lat="47.28127" lon="4.89346">
        <ele>516.2</ele>
        <time>2019-02-26T14:54:39Z</time>
      </trkpt>
      <trkpt lat="47.28133" lon="4.89336">
        <ele>515.8</ele>
        <time>2019-02-26T14:54:48Z</time>
      </trkpt>
      <trkpt lat="47.28138" lon="4.89323">
        <ele>516.5</ele>
        <time>2019-02-26T14:55:01Z</time>
      </trkpt>
      <trkpt lat="47.28142" lon="4.89312">
        <ele>517.4</ele>
        <time>2019-02-26T14:55:11Z</time>
      </trkpt>
      <trkpt lat="47.2815" lon="4.89305">
        <ele>517.9</ele>
        <time>2019-02-26T14:55:22Z</time>
      </trkpt>
      <trkpt lat="47.28159" lon="4.89301">
        <ele>518.2</ele>
        <time>2019-02-26T14:55:34Z</time>
      </trkpt>
      <trkpt lat="47.28169" lon="4.89299">
        <ele>518.2</ele>
        <time>2019-02-26T14:56:26Z</time>
      </trkpt>
      <trkpt lat="47.28178" lon="4.89301">
        <ele>517.3</ele>
        <time>2019-02-26T14:56:49Z</time>
      </trkpt>
      <trkpt lat="47.28187" lon="4.89303">
        <ele>516.5</ele>
        <time>2019-02-26T14:56:57Z</time>
      </trkpt>
      <trkpt lat="47.28196" lon="4.89303">
        <ele>515.7</ele>
        <time>2019-02-26T14:57:04Z</time>
      </trkpt>
      <trkpt lat="47.28205" lon="4.89302">
        <ele>515.1</ele>
        <time>2019-02-26T14:57:13Z</time>
      </trkpt>
      <trkpt lat="47.28214" lon="4.89297">
        <ele>514.9</ele>
        <time>2019-02-26T14:57:22Z</time>
      </trkpt>
      <trkpt lat="47.28223" lon="4.89291">
        <ele>515.1</ele>
        <time>2019-02-26T14:57:28Z</time>
      </trkpt>
      <trkpt lat="47.28232" lon="4.89285">
        <ele>515.2</ele>
        <time>2019-02-26T14:57:35Z</time>
      </trkpt>
      <trkpt lat="47.28241" lon="4.89282">
        <ele>515</ele>
        <time>2019-02-26T14:57:41Z</time>
      </trkpt>
      <trkpt lat="47.28251" lon="4.8928">
        <ele>514.9</ele>
        <time>2019-02-26T14:57:50Z</time>
      </trkpt>
      <trkpt lat="47.2826" lon="4.89281">
        <ele>515.1</ele>
        <time>2019-02-26T14:58:02Z</time>
      </trkpt>
      <trkpt lat="47.28269" lon="4.89286">
        <ele>514.9</ele>
        <time>2019-02-26T14:58:16Z</time>
      </trkpt>
      <trkpt lat="47.28278" lon="4.8929">
        <ele>514.6</ele>
        <time>2019-02-26T14:58:25Z</time>
      </trkpt>
      <trkpt lat="47.28287" lon="4.89296">
        <ele>514.2</ele>
        <time>2019-02-26T14:58:33Z</time>
      </trkpt>
      <trkpt lat="47.28295" lon="4.89301">
        <ele>513.7</ele>
        <time>2019-02-26T14:58:41Z</time>
      </trkpt>
      <trkpt lat="47.28304" lon="4.89307">
        <ele>513.1</ele>
        <time>2019-02-26T14:58:49Z</time>
      </trkpt>
      <trkpt lat="47.28312" lon="4.89316">
        <ele>511.8</ele>
        <time>2019-02-26T14:59:00Z</time>
      </trkpt>
      <trkpt lat="47.28319" lon="4.89326">
        <ele>510.2</ele>
        <time>2019-02-26T14:59:10Z</time>
      </trkpt>
      <trkpt lat="47.28326" lon="4.89335">
        <ele>508.6</ele>
        <time>2019-02-26T14:59:21Z</time>
      </trkpt>
      <trkpt lat="47.28331" lon="4.89347">
        <ele>507.1</ele>
        <time>2019-02-26T14:59:31Z</time>
      </trkpt>
      <trkpt lat="47.28336" lon="4.89359">
        <ele>505.7</ele>
        <time>2019-02-26T14:59:41Z</time>
      </trkpt>
      <trkpt lat="47.28341" lon="4.89371">
        <ele>504.4</ele>
        <time>2019-02-26T14:59:56Z</time>
      </trkpt>
      <trkpt lat="47.2834" lon="4.89385">
        <ele>502.3</ele>
        <time>2019-02-26T15:00:09Z</time>
      </trkpt>
      <trkpt lat="47.28333" lon="4.89394">
        <ele>500.4</ele>
        <time>2019-02-26T15:00:23Z</time>
      </trkpt>
      <trkpt lat="47.28327" lon="4.89405">
        <ele>499.1</ele>
        <time>2019-02-26T15:00:35Z</time>
      </trkpt>
      <trkpt lat="47.28329" lon="4.89418">
        <ele>497.3</ele>
        <time>2019-02-26T15:00:43Z</time>
      </trkpt>
      <trkpt lat="47.28334" lon="4.8943">
        <ele>495.8</ele>
        <time>2019-02-26T15:00:55Z</time>
      </trkpt>
      <trkpt lat="47.28338" lon="4.89444">
        <ele>494.6</ele>
        <time>2019-02-26T15:01:06Z</time>
      </trkpt>
      <trkpt lat="47.28343" lon="4.89456">
        <ele>493.6</ele>
        <time>2019-02-26T15:01:16Z</time>
      </trkpt>
      <trkpt lat="47.28349" lon="4.89467">
        <ele>492.6</ele>
        <time>2019-02-26T15:01:26Z</time>
      </trkpt>
      <trkpt lat="47.28356" lon="4.89477">
        <ele>491.7</ele>
        <time>2019-02-26T15:01:36Z</time>
      </trkpt>
      <trkpt lat="47.28363" lon="4.89487">
        <ele>490.6</ele>
        <time>2019-02-26T15:01:49Z</time>
      </trkpt>
      <trkpt lat="47.28369" lon="4.89498">
        <ele>489.4</ele>
        <time>2019-02-26T15:01:59Z</time>
      </trkpt>
      <trkpt lat="47.28376" lon="4.89507">
        <ele>488.6</ele>
        <time>2019-02-26T15:02:08Z</time>
      </trkpt>
      <trkpt lat="47.28382" lon="4.89517">
        <ele>487.7</ele>
        <time>2019-02-26T15:02:16Z</time>
      </trkpt>
      <trkpt lat="47.28386" lon="4.89531">
        <ele>486.4</ele>
        <time>2019-02-26T15:02:29Z</time>
      </trkpt>
      <trkpt lat="47.2839" lon="4.89544">
        <ele>485</ele>
        <time>2019-02-26T15:02:48Z</time>
      </trkpt>
      <trkpt lat="47.28394" lon="4.89556">
        <ele>483.5</ele>
        <time>2019-02-26T15:02:57Z</time>
      </trkpt>
      <trkpt lat="47.28398" lon="4.89568">
        <ele>481.9</ele>
        <time>2019-02-26T15:03:04Z</time>
      </trkpt>
      <trkpt lat="47.28405" lon="4.89578">
        <ele>480.1</ele>
        <time>2019-02-26T15:03:11Z</time>
      </trkpt>
      <trkpt lat="47.28413" lon="4.89585">
        <ele>478.5</ele>
        <time>2019-02-26T15:03:19Z</time>
      </trkpt>
      <trkpt lat="47.28421" lon="4.89592">
        <ele>478</ele>
        <time>2019-02-26T15:03:28Z</time>
      </trkpt>
      <trkpt lat="47.2843" lon="4.89599">
        <ele>477.9</ele>
        <time>2019-02-26T15:03:38Z</time>
      </trkpt>
      <trkpt lat="47.28438" lon="4.89606">
        <ele>477.7</ele>
        <time>2019-02-26T15:03:47Z</time>
      </trkpt>
      <trkpt lat="47.28446" lon="4.89614">
        <ele>477.2</ele>
        <time>2019-02-26T15:03:58Z</time>
      </trkpt>
      <trkpt lat="47.28454" lon="4.89618">
        <ele>476.8</ele>
        <time>2019-02-26T15:04:08Z</time>
      </trkpt>
      <trkpt lat="47.28462" lon="4.89625">
        <ele>475.9</ele>
        <time>2019-02-26T15:04:17Z</time>
      </trkpt>
      <trkpt lat="47.2847" lon="4.89632">
        <ele>474.9</ele>
        <time>2019-02-26T15:04:26Z</time>
      </trkpt>
      <trkpt lat="47.28478" lon="4.89637">
        <ele>473.9</ele>
        <time>2019-02-26T15:04:40Z</time>
      </trkpt>
      <trkpt lat="47.28486" lon="4.89646">
        <ele>472.3</ele>
        <time>2019-02-26T15:04:47Z</time>
      </trkpt>
      <trkpt lat="47.28493" lon="4.89656">
        <ele>470.5</ele>
        <time>2019-02-26T15:04:58Z</time>
      </trkpt>
      <trkpt lat="47.285" lon="4.89664">
        <ele>468.5</ele>
        <time>2019-02-26T15:05:15Z</time>
      </trkpt>
      <trkpt lat="47.28507" lon="4.89674">
        <ele>467.8</ele>
        <time>2019-02-26T15:05:25Z</time>
      </trkpt>
      <trkpt lat="47.28516" lon="4.89681">
        <ele>467.3</ele>
        <time>2019-02-26T15:05:33Z</time>
      </trkpt>
      <trkpt lat="47.28524" lon="4.89688">
        <ele>466.7</ele>
        <time>2019-02-26T15:05:41Z</time>
      </trkpt>
      <trkpt lat="47.28532" lon="4.89697">
        <ele>466</ele>
        <time>2019-02-26T15:05:50Z</time>
      </trkpt>
      <trkpt lat="47.28539" lon="4.89707">
        <ele>465.1</ele>
        <time>2019-02-26T15:06:00Z</time>
      </trkpt>
      <trkpt lat="47.28546" lon="4.89718">
        <ele>464.1</ele>
        <time>2019-02-26T15:06:12Z</time>
      </trkpt>
      <trkpt lat="47.28553" lon="4.89726">
        <ele>462.8</ele>
        <time>2019-02-26T15:06:19Z</time>
      </trkpt>
      <trkpt lat="47.28562" lon="4.89731">
        <ele>461.5</ele>
        <time>2019-02-26T15:06:27Z</time>
      </trkpt>
      <trkpt lat="47.28571" lon="4.89733">
        <ele>460.2</ele>
        <time>2019-02-26T15:06:38Z</time>
      </trkpt>
      <trkpt lat="47.2858" lon="4.89734">
        <ele>458.9</ele>
        <time>2019-02-26T15:06:46Z</time>
      </trkpt>
      <trkpt lat="47.28589" lon="4.89732">
        <ele>458.3</ele>
        <time>2019-02-26T15:07:01Z</time>
      </trkpt>
      <trkpt lat="47.28599" lon="4.89734">
        <ele>457.7</ele>
        <time>2019-02-26T15:07:11Z</time>
      </trkpt>
      <trkpt lat="47.28608" lon="4.89737">
        <ele>457</ele>
        <time>2019-02-26T15:07:20Z</time>
      </trkpt>
      <trkpt lat="47.28617" lon="4.89742">
        <ele>456</ele>
        <time>2019-02-26T15:07:33Z</time>
      </trkpt>
      <trkpt lat="47.28626" lon="4.89747">
        <ele>454.9</ele>
        <time>2019-02-26T15:07:41Z</time>
      </trkpt>
      <trkpt lat="47.28635" lon="4.8975">
        <ele>453.9</ele>
        <time>2019-02-26T15:07:52Z</time>
      </trkpt>
      <trkpt lat="47.28644" lon="4.89753">
        <ele>453.6</ele>
        <time>2019-02-26T15:08:02Z</time>
      </trkpt>
      <trkpt lat="47.28654" lon="4.89756">
        <ele>453.2</ele>
        <time>2019-02-26T15:08:12Z</time>
      </trkpt>
      <trkpt lat="47.28663" lon="4.89757">
        <ele>452.8</ele>
        <time>2019-02-26T15:08:25Z</time>
      </trkpt>
      <trkpt lat="47.28672" lon="4.89759">
        <ele>452.2</ele>
        <time>2019-02-26T15:08:39Z</time>
      </trkpt>
      <trkpt lat="47.28681" lon="4.89762">
        <ele>451.9</ele>
        <time>2019-02-26T15:08:47Z</time>
      </trkpt>
      <trkpt lat="47.2869" lon="4.89763">
        <ele>451.4</ele>
        <time>2019-02-26T15:08:53Z</time>
      </trkpt>
      <trkpt lat="47.287" lon="4.89765">
        <ele>450.7</ele>
        <time>2019-02-26T15:09:00Z</time>
      </trkpt>
      <trkpt lat="47.2871" lon="4.89765">
        <ele>450</ele>
        <time>2019-02-26T15:09:10Z</time>
      </trkpt>
      <trkpt lat="47.28719" lon="4.89768">
        <ele>449.5</ele>
        <time>2019-02-26T15:09:21Z</time>
      </trkpt>
      <trkpt lat="47.28728" lon="4.89774">
        <ele>449</ele>
        <time>2019-02-26T15:09:36Z</time>
      </trkpt>
      <trkpt lat="47.28737" lon="4.89778">
        <ele>448.4</ele>
        <time>2019-02-26T15:09:58Z</time>
      </trkpt>
      <trkpt lat="47.28747" lon="4.89779">
        <ele>447.6</ele>
        <time>2019-02-26T15:10:11Z</time>
      </trkpt>
      <trkpt lat="47.28756" lon="4.89782">
        <ele>447.1</ele>
        <time>2019-02-26T15:10:20Z</time>
      </trkpt>
      <trkpt lat="47.28765" lon="4.89784">
        <ele>446.6</ele>
        <time>2019-02-26T15:10:31Z</time>
      </trkpt>
      <trkpt lat="47.28775" lon="4.89786">
        <ele>446.1</ele>
        <time>2019-02-26T15:10:39Z</time>
      </trkpt>
      <trkpt lat="47.28785" lon="4.89788">
        <ele>445.6</ele>
        <time>2019-02-26T15:10:49Z</time>
      </trkpt>
      <trkpt lat="47.28794" lon="4.89788">
        <ele>445.1</ele>
        <time>2019-02-26T15:10:54Z</time>
      </trkpt>
      <trkpt lat="47.28806" lon="4.89789">
        <ele>444.5</ele>
        <time>2019-02-26T15:11:03Z</time>
      </trkpt>
      <trkpt lat="47.28815" lon="4.8979">
        <ele>444</ele>
        <time>2019-02-26T15:11:11Z</time>
      </trkpt>
      <trkpt lat="47.28824" lon="4.89789">
        <ele>443.5</ele>
        <time>2019-02-26T15:11:29Z</time>
      </trkpt>
      <trkpt lat="47.28834" lon="4.89791">
        <ele>442.9</ele>
        <time>2019-02-26T15:11:39Z</time>
      </trkpt>
      <trkpt lat="47.28843" lon="4.89792">
        <ele>442</ele>
        <time>2019-02-26T15:11:52Z</time>
      </trkpt>
      <trkpt lat="47.28855" lon="4.8979">
        <ele>440.8</ele>
        <time>2019-02-26T15:12:18Z</time>
      </trkpt>
      <trkpt lat="47.28863" lon="4.89795">
        <ele>440</ele>
        <time>2019-02-26T15:13:44Z</time>
      </trkpt>
      <trkpt lat="47.28871" lon="4.89802">
        <ele>439.5</ele>
        <time>2019-02-26T15:13:52Z</time>
      </trkpt>
      <trkpt lat="47.28881" lon="4.89809">
        <ele>438.7</ele>
        <time>2019-02-26T15:13:59Z</time>
      </trkpt>
      <trkpt lat="47.28889" lon="4.89817">
        <ele>438.2</ele>
        <time>2019-02-26T15:14:06Z</time>
      </trkpt>
      <trkpt lat="47.28893" lon="4.89829">
        <ele>438.1</ele>
        <time>2019-02-26T15:14:16Z</time>
      </trkpt>
      <trkpt lat="47.28901" lon="4.89837">
        <ele>438.2</ele>
        <time>2019-02-26T15:14:24Z</time>
      </trkpt>
      <trkpt lat="47.28912" lon="4.89837">
        <ele>437.3</ele>
        <time>2019-02-26T15:14:33Z</time>
      </trkpt>
      <trkpt lat="47.28921" lon="4.89835">
        <ele>436.3</ele>
        <time>2019-02-26T15:14:43Z</time>
      </trkpt>
      <trkpt lat="47.28931" lon="4.89834">
        <ele>436</ele>
        <time>2019-02-26T15:15:00Z</time>
      </trkpt>
      <trkpt lat="47.28941" lon="4.89837">
        <ele>436.7</ele>
        <time>2019-02-26T15:15:05Z</time>
      </trkpt>
      <trkpt lat="47.2895" lon="4.8984">
        <ele>437.1</ele>
        <time>2019-02-26T15:15:11Z</time>
      </trkpt>
      <trkpt lat="47.28959" lon="4.89843">
        <ele>437.8</ele>
        <time>2019-02-26T15:15:22Z</time>
      </trkpt>
      <trkpt lat="47.28969" lon="4.89845">
        <ele>438.2</ele>
        <time>2019-02-26T15:15:31Z</time>
      </trkpt>
      <trkpt lat="47.28978" lon="4.89846">
        <ele>438.6</ele>
        <time>2019-02-26T15:15:41Z</time>
      </trkpt>
      <trkpt lat="47.28988" lon="4.89844">
        <ele>438.3</ele>
        <time>2019-02-26T15:15:52Z</time>
      </trkpt>
      <trkpt lat="47.28997" lon="4.89841">
        <ele>437.8</ele>
        <time>2019-02-26T15:16:04Z</time>
      </trkpt>
      <trkpt lat="47.29008" lon="4.89839">
        <ele>437.4</ele>
        <time>2019-02-26T15:16:09Z</time>
      </trkpt>
      <trkpt lat="47.29018" lon="4.89841">
        <ele>437.8</ele>
        <time>2019-02-26T15:16:21Z</time>
      </trkpt>
      <trkpt lat="47.29027" lon="4.89845">
        <ele>439</ele>
        <time>2019-02-26T15:16:29Z</time>
      </trkpt>
      <trkpt lat="47.29037" lon="4.89847">
        <ele>439.5</ele>
        <time>2019-02-26T15:16:37Z</time>
      </trkpt>
      <trkpt lat="47.29048" lon="4.89849">
        <ele>440.1</ele>
        <time>2019-02-26T15:16:55Z</time>
      </trkpt>
      <trkpt lat="47.29057" lon="4.89851">
        <ele>440.5</ele>
        <time>2019-02-26T15:16:59Z</time>
      </trkpt>
      <trkpt lat="47.29067" lon="4.89851">
        <ele>440.6</ele>
        <time>2019-02-26T15:17:07Z</time>
      </trkpt>
      <trkpt lat="47.29078" lon="4.89848">
        <ele>440.4</ele>
        <time>2019-02-26T15:17:17Z</time>
      </trkpt>
      <trkpt lat="47.29087" lon="4.89845">
        <ele>439.9</ele>
        <time>2019-02-26T15:17:23Z</time>
      </trkpt>
      <trkpt lat="47.29096" lon="4.89845">
        <ele>439.6</ele>
        <time>2019-02-26T15:17:41Z</time>
      </trkpt>
      <trkpt lat="47.29106" lon="4.89844">
        <ele>439.1</ele>
        <time>2019-02-26T15:17:49Z</time>
      </trkpt>
      <trkpt lat="47.29115" lon="4.89844">
        <ele>438.9</ele>
        <time>2019-02-26T15:18:07Z</time>
      </trkpt>
      <trkpt lat="47.29124" lon="4.89845">
        <ele>438.8</ele>
        <time>2019-02-26T15:18:13Z</time>
      </trkpt>
      <trkpt lat="47.29134" lon="4.89848">
        <ele>439.1</ele>
        <time>2019-02-26T15:18:21Z</time>
      </trkpt>
      <trkpt lat="47.29143" lon="4.89849">
        <ele>439.2</ele>
        <time>2019-02-26T15:18:27Z</time>
      </trkpt>
      <trkpt lat="47.29154" lon="4.89851">
        <ele>439.2</ele>
        <time>2019-02-26T15:18:40Z</time>
      </trkpt>
      <trkpt lat="47.29163" lon="4.89853">
        <ele>439.3</ele>
        <time>2019-02-26T15:18:46Z</time>
      </trkpt>
      <trkpt lat="47.29172" lon="4.89854">
        <ele>439.5</ele>
        <time>2019-02-26T15:18:54Z</time>
      </trkpt>
      <trkpt lat="47.29182" lon="4.89854">
        <ele>439.8</ele>
        <time>2019-02-26T15:19:00Z</time>
      </trkpt>
      <trkpt lat="47.29191" lon="4.89856">
        <ele>440.2</ele>
        <time>2019-02-26T15:19:17Z</time>
      </trkpt>
      <trkpt lat="47.29201" lon="4.89857">
        <ele>440.6</ele>
        <time>2019-02-26T15:19:25Z</time>
      </trkpt>
      <trkpt lat="47.2921" lon="4.89858">
        <ele>440.9</ele>
        <time>2019-02-26T15:19:33Z</time>
      </trkpt>
      <trkpt lat="47.29219" lon="4.89858">
        <ele>440.7</ele>
        <time>2019-02-26T15:19:42Z</time>
      </trkpt>
      <trkpt lat="47.29229" lon="4.8986">
        <ele>441.4</ele>
        <time>2019-02-26T15:19:56Z</time>
      </trkpt>
      <trkpt lat="47.2924" lon="4.89862">
        <ele>441.8</ele>
        <time>2019-02-26T15:20:02Z</time>
      </trkpt>
      <trkpt lat="47.29249" lon="4.89862">
        <ele>442.2</ele>
        <time>2019-02-26T15:20:12Z</time>
      </trkpt>
      <trkpt lat="47.29259" lon="4.89862">
        <ele>442.9</ele>
        <time>2019-02-26T15:20:19Z</time>
      </trkpt>
      <trkpt lat="47.29269" lon="4.8986">
        <ele>443.1</ele>
        <time>2019-02-26T15:20:25Z</time>
      </trkpt>
      <trkpt lat="47.29279" lon="4.89857">
        <ele>443.3</ele>
        <time>2019-02-26T15:20:32Z</time>
      </trkpt>
      <trkpt lat="47.29288" lon="4.89855">
        <ele>443.9</ele>
        <time>2019-02-26T15:20:43Z</time>
      </trkpt>
      <trkpt lat="47.29298" lon="4.89856">
        <ele>444.7</ele>
        <time>2019-02-26T15:20:53Z</time>
      </trkpt>
      <trkpt lat="47.29308" lon="4.89855">
        <ele>445.3</ele>
        <time>2019-02-26T15:21:08Z</time>
      </trkpt>
      <trkpt lat="47.29317" lon="4.89851">
        <ele>445.2</ele>
        <time>2019-02-26T15:21:15Z</time>
      </trkpt>
      <trkpt lat="47.29326" lon="4.89849">
        <ele>445.7</ele>
        <time>2019-02-26T15:21:25Z</time>
      </trkpt>
      <trkpt lat="47.29336" lon="4.89847">
        <ele>446</ele>
        <time>2019-02-26T15:21:32Z</time>
      </trkpt>
      <trkpt lat="47.29345" lon="4.89844">
        <ele>446.2</ele>
        <time>2019-02-26T15:21:41Z</time>
      </trkpt>
      <trkpt lat="47.29354" lon="4.89841">
        <ele>446.3</ele>
        <time>2019-02-26T15:21:54Z</time>
      </trkpt>
      <trkpt lat="47.29363" lon="4.89834">
        <ele>445.6</ele>
        <time>2019-02-26T15:22:05Z</time>
      </trkpt>
      <trkpt lat="47.29371" lon="4.89828">
        <ele>444.6</ele>
        <time>2019-02-26T15:22:11Z</time>
      </trkpt>
      <trkpt lat="47.2938" lon="4.89826">
        <ele>445</ele>
        <time>2019-02-26T15:22:26Z</time>
      </trkpt>
      <trkpt lat="47.29389" lon="4.89827">
        <ele>446.1</ele>
        <time>2019-02-26T15:22:35Z</time>
      </trkpt>
      <trkpt lat="47.29399" lon="4.89826">
        <ele>446.7</ele>
        <time>2019-02-26T15:22:45Z</time>
      </trkpt>
      <trkpt lat="47.29408" lon="4.89821">
        <ele>446.4</ele>
        <time>2019-02-26T15:22:51Z</time>
      </trkpt>
      <trkpt lat="47.29416" lon="4.89814">
        <ele>445.7</ele>
        <time>2019-02-26T15:22:59Z</time>
      </trkpt>
      <trkpt lat="47.29423" lon="4.89807">
        <ele>445.1</ele>
        <time>2019-02-26T15:23:09Z</time>
      </trkpt>
      <trkpt lat="47.29432" lon="4.89801">
        <ele>445</ele>
        <time>2019-02-26T15:23:17Z</time>
      </trkpt>
      <trkpt lat="47.2944" lon="4.89795">
        <ele>444.8</ele>
        <time>2019-02-26T15:23:28Z</time>
      </trkpt>
      <trkpt lat="47.2945" lon="4.89791">
        <ele>445.3</ele>
        <time>2019-02-26T15:23:45Z</time>
      </trkpt>
      <trkpt lat="47.29459" lon="4.89785">
        <ele>445.2</ele>
        <time>2019-02-26T15:24:28Z</time>
      </trkpt>
      <trkpt lat="47.29467" lon="4.89777">
        <ele>444.8</ele>
        <time>2019-02-26T15:24:35Z</time>
      </trkpt>
      <trkpt lat="47.29478" lon="4.89768">
        <ele>444.7</ele>
        <time>2019-02-26T15:24:39Z</time>
      </trkpt>
      <trkpt lat="47.29487" lon="4.89762">
        <ele>444.5</ele>
        <time>2019-02-26T15:24:43Z</time>
      </trkpt>
      <trkpt lat="47.29496" lon="4.89755">
        <ele>444.5</ele>
        <time>2019-02-26T15:24:48Z</time>
      </trkpt>
      <trkpt lat="47.29505" lon="4.8975">
        <ele>444.4</ele>
        <time>2019-02-26T15:24:55Z</time>
      </trkpt>
      <trkpt lat="47.29513" lon="4.89743">
        <ele>443.5</ele>
        <time>2019-02-26T15:25:03Z</time>
      </trkpt>
      <trkpt lat="47.29522" lon="4.89737">
        <ele>442.8</ele>
        <time>2019-02-26T15:25:21Z</time>
      </trkpt>
      <trkpt lat="47.29532" lon="4.89733">
        <ele>443</ele>
        <time>2019-02-26T15:25:28Z</time>
      </trkpt>
      <trkpt lat="47.29542" lon="4.8973">
        <ele>443.1</ele>
        <time>2019-02-26T15:25:35Z</time>
      </trkpt>
      <trkpt lat="47.29551" lon="4.89725">
        <ele>442.7</ele>
        <time>2019-02-26T15:25:39Z</time>
      </trkpt>
      <trkpt lat="47.2956" lon="4.89721">
        <ele>442.5</ele>
        <time>2019-02-26T15:25:54Z</time>
      </trkpt>
      <trkpt lat="47.29569" lon="4.89717">
        <ele>442.5</ele>
        <time>2019-02-26T15:26:09Z</time>
      </trkpt>
      <trkpt lat="47.29577" lon="4.89713">
        <ele>442.4</ele>
        <time>2019-02-26T15:26:23Z</time>
      </trkpt>
      <trkpt lat="47.29586" lon="4.89708">
        <ele>442</ele>
        <time>2019-02-26T15:26:33Z</time>
      </trkpt>
      <trkpt lat="47.29595" lon="4.89704">
        <ele>442</ele>
        <time>2019-02-26T15:26:40Z</time>
      </trkpt>
      <trkpt lat="47.29605" lon="4.89701">
        <ele>441.9</ele>
        <time>2019-02-26T15:26:44Z</time>
      </trkpt>
      <trkpt lat="47.29614" lon="4.89698">
        <ele>441.9</ele>
        <time>2019-02-26T15:26:56Z</time>
      </trkpt>
      <trkpt lat="47.29623" lon="4.89692">
        <ele>441.4</ele>
        <time>2019-02-26T15:27:04Z</time>
      </trkpt>
      <trkpt lat="47.29631" lon="4.89685">
        <ele>440.6</ele>
        <time>2019-02-26T15:27:16Z</time>
      </trkpt>
      <trkpt lat="47.29639" lon="4.89679">
        <ele>439.7</ele>
        <time>2019-02-26T15:27:23Z</time>
      </trkpt>
      <trkpt lat="47.29648" lon="4.89673">
        <ele>439.1</ele>
        <time>2019-02-26T15:27:33Z</time>
      </trkpt>
      <trkpt lat="47.29657" lon="4.89668">
        <ele>438.7</ele>
        <time>2019-02-26T15:27:40Z</time>
      </trkpt>
      <trkpt lat="47.29666" lon="4.89663">
        <ele>438.3</ele>
        <time>2019-02-26T15:27:49Z</time>
      </trkpt>
      <trkpt lat="47.29676" lon="4.8966">
        <ele>438.3</ele>
        <time>2019-02-26T15:28:00Z</time>
      </trkpt>
      <trkpt lat="47.29686" lon="4.89659">
        <ele>438.8</ele>
        <time>2019-02-26T15:28:05Z</time>
      </trkpt>
      <trkpt lat="47.29695" lon="4.89657">
        <ele>438.9</ele>
        <time>2019-02-26T15:28:13Z</time>
      </trkpt>
      <trkpt lat="47.29704" lon="4.89656">
        <ele>439.4</ele>
        <time>2019-02-26T15:28:21Z</time>
      </trkpt>
      <trkpt lat="47.29714" lon="4.89655">
        <ele>439.6</ele>
        <time>2019-02-26T15:28:34Z</time>
      </trkpt>
      <trkpt lat="47.29724" lon="4.89656">
        <ele>440.3</ele>
        <time>2019-02-26T15:28:41Z</time>
      </trkpt>
      <trkpt lat="47.29733" lon="4.89656">
        <ele>441.1</ele>
        <time>2019-02-26T15:28:50Z</time>
      </trkpt>
      <trkpt lat="47.29743" lon="4.89657">
        <ele>441.7</ele>
        <time>2019-02-26T15:28:59Z</time>
      </trkpt>
      <trkpt lat="47.29752" lon="4.89654">
        <ele>441.6</ele>
        <time>2019-02-26T15:29:05Z</time>
      </trkpt>
      <trkpt lat="47.29761" lon="4.89652">
        <ele>441.1</ele>
        <time>2019-02-26T15:29:13Z</time>
      </trkpt>
      <trkpt lat="47.29771" lon="4.8965">
        <ele>440.8</ele>
        <time>2019-02-26T15:29:27Z</time>
      </trkpt>
      <trkpt lat="47.2978" lon="4.89647">
        <ele>440</ele>
        <time>2019-02-26T15:29:35Z</time>
      </trkpt>
      <trkpt lat="47.29789" lon="4.89648">
        <ele>440.4</ele>
        <time>2019-02-26T15:29:46Z</time>
      </trkpt>
      <trkpt lat="47.29799" lon="4.89647">
        <ele>440</ele>
        <time>2019-02-26T15:29:51Z</time>
      </trkpt>
      <trkpt lat="47.29809" lon="4.89646">
        <ele>439.7</ele>
        <time>2019-02-26T15:30:03Z</time>
      </trkpt>
      <trkpt lat="47.29817" lon="4.8964">
        <ele>438.6</ele>
        <time>2019-02-26T15:30:10Z</time>
      </trkpt>
      <trkpt lat="47.29826" lon="4.89636">
        <ele>437.8</ele>
        <time>2019-02-26T15:30:19Z</time>
      </trkpt>
      <trkpt lat="47.29836" lon="4.89635">
        <ele>437.5</ele>
        <time>2019-02-26T15:30:26Z</time>
      </trkpt>
      <trkpt lat="47.29846" lon="4.89635">
        <ele>437.8</ele>
        <time>2019-02-26T15:30:43Z</time>
      </trkpt>
      <trkpt lat="47.29856" lon="4.89631">
        <ele>436.9</ele>
        <time>2019-02-26T15:30:51Z</time>
      </trkpt>
      <trkpt lat="47.29866" lon="4.89627">
        <ele>436.3</ele>
        <time>2019-02-26T15:31:01Z</time>
      </trkpt>
      <trkpt lat="47.29875" lon="4.89623">
        <ele>435.6</ele>
        <time>2019-02-26T15:31:06Z</time>
      </trkpt>
      <trkpt lat="47.29884" lon="4.89618">
        <ele>434.7</ele>
        <time>2019-02-26T15:31:22Z</time>
      </trkpt>
      <trkpt lat="47.29893" lon="4.89613">
        <ele>433.9</ele>
        <time>2019-02-26T15:31:30Z</time>
      </trkpt>
      <trkpt lat="47.29901" lon="4.89609">
        <ele>433.2</ele>
        <time>2019-02-26T15:31:43Z</time>
      </trkpt>
      <trkpt lat="47.2991" lon="4.89605">
        <ele>432.7</ele>
        <time>2019-02-26T15:31:58Z</time>
      </trkpt>
      <trkpt lat="47.29921" lon="4.89602">
        <ele>431.9</ele>
        <time>2019-02-26T15:32:11Z</time>
      </trkpt>
      <trkpt lat="47.29931" lon="4.896">
        <ele>431</ele>
        <time>2019-02-26T15:32:15Z</time>
      </trkpt>
      <trkpt lat="47.2994" lon="4.89597">
        <ele>430</ele>
        <time>2019-02-26T15:32:20Z</time>
      </trkpt>
      <trkpt lat="47.29949" lon="4.89595">
        <ele>429</ele>
        <time>2019-02-26T15:32:29Z</time>
      </trkpt>
      <trkpt lat="47.29959" lon="4.89593">
        <ele>428.3</ele>
        <time>2019-02-26T15:32:39Z</time>
      </trkpt>
      <trkpt lat="47.29969" lon="4.89592">
        <ele>427.5</ele>
        <time>2019-02-26T15:32:48Z</time>
      </trkpt>
      <trkpt lat="47.29979" lon="4.89591">
        <ele>426.9</ele>
        <time>2019-02-26T15:32:54Z</time>
      </trkpt>
      <trkpt lat="47.2999" lon="4.8959">
        <ele>426</ele>
        <time>2019-02-26T15:33:00Z</time>
      </trkpt>
      <trkpt lat="47.29999" lon="4.89587">
        <ele>424.9</ele>
        <time>2019-02-26T15:33:07Z</time>
      </trkpt>
      <trkpt lat="47.30008" lon="4.89586">
        <ele>424.6</ele>
        <time>2019-02-26T15:33:15Z</time>
      </trkpt>
      <trkpt lat="47.30017" lon="4.89586">
        <ele>424.3</ele>
        <time>2019-02-26T15:33:22Z</time>
      </trkpt>
      <trkpt lat="47.30027" lon="4.89587">
        <ele>424.6</ele>
        <time>2019-02-26T15:33:56Z</time>
      </trkpt>
      <trkpt lat="47.30036" lon="4.89591">
        <ele>425.4</ele>
        <time>2019-02-26T15:34:09Z</time>
      </trkpt>
      <trkpt lat="47.30045" lon="4.89592">
        <ele>425.7</ele>
        <time>2019-02-26T15:34:25Z</time>
      </trkpt>
      <trkpt lat="47.30054" lon="4.89588">
        <ele>425.1</ele>
        <time>2019-02-26T15:34:34Z</time>
      </trkpt>
      <trkpt lat="47.30063" lon="4.8959">
        <ele>425.4</ele>
        <time>2019-02-26T15:36:20Z</time>
      </trkpt>
      <trkpt lat="47.30073" lon="4.89591">
        <ele>425.7</ele>
        <time>2019-02-26T15:36:27Z</time>
      </trkpt>
      <trkpt lat="47.30083" lon="4.89593">
        <ele>426</ele>
        <time>2019-02-26T15:36:32Z</time>
      </trkpt>
      <trkpt lat="47.30092" lon="4.89594">
        <ele>426</ele>
        <time>2019-02-26T15:36:41Z</time>
      </trkpt>
      <trkpt lat="47.30102" lon="4.89594">
        <ele>425.8</ele>
        <time>2019-02-26T15:36:54Z</time>
      </trkpt>
      <trkpt lat="47.30111" lon="4.89595">
        <ele>425.9</ele>
        <time>2019-02-26T15:37:06Z</time>
      </trkpt>
      <trkpt lat="47.3012" lon="4.89596">
        <ele>425.7</ele>
        <time>2019-02-26T15:37:14Z</time>
      </trkpt>
      <trkpt lat="47.3013" lon="4.89595">
        <ele>425.5</ele>
        <time>2019-02-26T15:37:30Z</time>
      </trkpt>
      <trkpt lat="47.30139" lon="4.89593">
        <ele>424.7</ele>
        <time>2019-02-26T15:37:36Z</time>
      </trkpt>
      <trkpt lat="47.30148" lon="4.89591">
        <ele>424</ele>
        <time>2019-02-26T15:37:45Z</time>
      </trkpt>
      <trkpt lat="47.30157" lon="4.89589">
        <ele>423.4</ele>
        <time>2019-02-26T15:37:55Z</time>
      </trkpt>
      <trkpt lat="47.30166" lon="4.8959">
        <ele>423.5</ele>
        <time>2019-02-26T15:38:06Z</time>
      </trkpt>
      <trkpt lat="47.30176" lon="4.89592">
        <ele>424.2</ele>
        <time>2019-02-26T15:38:12Z</time>
      </trkpt>
      <trkpt lat="47.30186" lon="4.89594">
        <ele>424.6</ele>
        <time>2019-02-26T15:38:15Z</time>
      </trkpt>
      <trkpt lat="47.30196" lon="4.89595">
        <ele>425.1</ele>
        <time>2019-02-26T15:38:26Z</time>
      </trkpt>
      <trkpt lat="47.30206" lon="4.89593">
        <ele>424.8</ele>
        <time>2019-02-26T15:38:38Z</time>
      </trkpt>
      <trkpt lat="47.30215" lon="4.8959">
        <ele>424.4</ele>
        <time>2019-02-26T15:38:46Z</time>
      </trkpt>
      <trkpt lat="47.30225" lon="4.89587">
        <ele>424.1</ele>
        <time>2019-02-26T15:39:01Z</time>
      </trkpt>
      <trkpt lat="47.30234" lon="4.89583">
        <ele>423.5</ele>
        <time>2019-02-26T15:39:07Z</time>
      </trkpt>
      <trkpt lat="47.30245" lon="4.8958">
        <ele>423.2</ele>
        <time>2019-02-26T15:39:12Z</time>
      </trkpt>
      <trkpt lat="47.30254" lon="4.89579">
        <ele>423.1</ele>
        <time>2019-02-26T15:39:20Z</time>
      </trkpt>
      <trkpt lat="47.30263" lon="4.89581">
        <ele>422.8</ele>
        <time>2019-02-26T15:39:28Z</time>
      </trkpt>
      <trkpt lat="47.30275" lon="4.89581">
        <ele>422.2</ele>
        <time>2019-02-26T15:39:39Z</time>
      </trkpt>
      <trkpt lat="47.30284" lon="4.89581">
        <ele>421.6</ele>
        <time>2019-02-26T15:39:50Z</time>
      </trkpt>
      <trkpt lat="47.30295" lon="4.89581">
        <ele>421</ele>
        <time>2019-02-26T15:40:05Z</time>
      </trkpt>
      <trkpt lat="47.30305" lon="4.8958">
        <ele>420.2</ele>
        <time>2019-02-26T15:40:09Z</time>
      </trkpt>
      <trkpt lat="47.30315" lon="4.89579">
        <ele>419.5</ele>
        <time>2019-02-26T15:40:18Z</time>
      </trkpt>
      <trkpt lat="47.30325" lon="4.89579">
        <ele>418.9</ele>
        <time>2019-02-26T15:40:27Z</time>
      </trkpt>
      <trkpt lat="47.30336" lon="4.8958">
        <ele>418.5</ele>
        <time>2019-02-26T15:40:38Z</time>
      </trkpt>
      <trkpt lat="47.30346" lon="4.89581">
        <ele>418.4</ele>
        <time>2019-02-26T15:40:45Z</time>
      </trkpt>
      <trkpt lat="47.30355" lon="4.89583">
        <ele>418.3</ele>
        <time>2019-02-26T15:40:58Z</time>
      </trkpt>
      <trkpt lat="47.30366" lon="4.89583">
        <ele>418.2</ele>
        <time>2019-02-26T15:41:03Z</time>
      </trkpt>
      <trkpt lat="47.30375" lon="4.89582">
        <ele>417.8</ele>
        <time>2019-02-26T15:41:08Z</time>
      </trkpt>
      <trkpt lat="47.30385" lon="4.89582">
        <ele>417.4</ele>
        <time>2019-02-26T15:41:15Z</time>
      </trkpt>
      <trkpt lat="47.30396" lon="4.89584">
        <ele>417.5</ele>
        <time>2019-02-26T15:41:23Z</time>
      </trkpt>
      <trkpt lat="47.30405" lon="4.89586">
        <ele>417.6</ele>
        <time>2019-02-26T15:41:29Z</time>
      </trkpt>
      <trkpt lat="47.30415" lon="4.89587">
        <ele>417.4</ele>
        <time>2019-02-26T15:41:37Z</time>
      </trkpt>
      <trkpt lat="47.30424" lon="4.89587">
        <ele>417</ele>
        <time>2019-02-26T15:41:47Z</time>
      </trkpt>
      <trkpt lat="47.30433" lon="4.89588">
        <ele>416.7</ele>
        <time>2019-02-26T15:41:56Z</time>
      </trkpt>
      <trkpt lat="47.30442" lon="4.89589">
        <ele>416.1</ele>
        <time>2019-02-26T15:42:07Z</time>
      </trkpt>
      <trkpt lat="47.30452" lon="4.8959">
        <ele>415.6</ele>
        <time>2019-02-26T15:42:16Z</time>
      </trkpt>
      <trkpt lat="47.30461" lon="4.89592">
        <ele>415.2</ele>
        <time>2019-02-26T15:42:27Z</time>
      </trkpt>
      <trkpt lat="47.30471" lon="4.89596">
        <ele>415</ele>
        <time>2019-02-26T15:42:36Z</time>
      </trkpt>
      <trkpt lat="47.3048" lon="4.89598">
        <ele>414.7</ele>
        <time>2019-02-26T15:42:45Z</time>
      </trkpt>
      <trkpt lat="47.30489" lon="4.89597">
        <ele>414</ele>
        <time>2019-02-26T15:42:53Z</time>
      </trkpt>
      <trkpt lat="47.30499" lon="4.89598">
        <ele>413.5</ele>
        <time>2019-02-26T15:43:01Z</time>
      </trkpt>
      <trkpt lat="47.3051" lon="4.89598">
        <ele>411.7</ele>
        <time>2019-02-26T15:43:09Z</time>
      </trkpt>
      <trkpt lat="47.3052" lon="4.89598">
        <ele>409.9</ele>
        <time>2019-02-26T15:43:15Z</time>
      </trkpt>
      <trkpt lat="47.30529" lon="4.896">
        <ele>408.3</ele>
        <time>2019-02-26T15:43:24Z</time>
      </trkpt>
      <trkpt lat="47.30538" lon="4.89603">
        <ele>407.1</ele>
        <time>2019-02-26T15:43:34Z</time>
      </trkpt>
      <trkpt lat="47.30547" lon="4.89609">
        <ele>406.1</ele>
        <time>2019-02-26T15:43:45Z</time>
      </trkpt>
      <trkpt lat="47.30556" lon="4.89615">
        <ele>405.5</ele>
        <time>2019-02-26T15:43:58Z</time>
      </trkpt>
      <trkpt lat="47.30566" lon="4.89619">
        <ele>404.4</ele>
        <time>2019-02-26T15:44:07Z</time>
      </trkpt>
      <trkpt lat="47.30574" lon="4.89627">
        <ele>404.3</ele>
        <time>2019-02-26T15:44:17Z</time>
      </trkpt>
      <trkpt lat="47.30582" lon="4.89633">
        <ele>403.9</ele>
        <time>2019-02-26T15:44:26Z</time>
      </trkpt>
      <trkpt lat="47.30589" lon="4.89644">
        <ele>404.7</ele>
        <time>2019-02-26T15:44:44Z</time>
      </trkpt>
      <trkpt lat="47.30598" lon="4.8965">
        <ele>404.5</ele>
        <time>2019-02-26T15:44:51Z</time>
      </trkpt>
      <trkpt lat="47.30606" lon="4.89657">
        <ele>404.4</ele>
        <time>2019-02-26T15:44:58Z</time>
      </trkpt>
      <trkpt lat="47.30614" lon="4.89666">
        <ele>404.4</ele>
        <time>2019-02-26T15:45:06Z</time>
      </trkpt>
      <trkpt lat="47.30621" lon="4.89675">
        <ele>404.5</ele>
        <time>2019-02-26T15:45:14Z</time>
      </trkpt>
      <trkpt lat="47.30629" lon="4.89681">
        <ele>404</ele>
        <time>2019-02-26T15:45:23Z</time>
      </trkpt>
      <trkpt lat="47.30639" lon="4.89688">
        <ele>403.3</ele>
        <time>2019-02-26T15:45:31Z</time>
      </trkpt>
      <trkpt lat="47.30647" lon="4.89695">
        <ele>402.7</ele>
        <time>2019-02-26T15:45:38Z</time>
      </trkpt>
      <trkpt lat="47.30655" lon="4.89702">
        <ele>402</ele>
        <time>2019-02-26T15:45:47Z</time>
      </trkpt>
      <trkpt lat="47.30665" lon="4.89708">
        <ele>400.8</ele>
        <time>2019-02-26T15:45:55Z</time>
      </trkpt>
      <trkpt lat="47.30671" lon="4.89718">
        <ele>400.7</ele>
        <time>2019-02-26T15:48:00Z</time>
      </trkpt>
      <trkpt lat="47.30681" lon="4.8972">
        <ele>399.8</ele>
        <time>2019-02-26T15:48:14Z</time>
      </trkpt>
      <trkpt lat="47.3069" lon="4.89717">
        <ele>398.5</ele>
        <time>2019-02-26T15:49:16Z</time>
      </trkpt>
      <trkpt lat="47.30699" lon="4.89713">
        <ele>397.3</ele>
        <time>2019-02-26T15:49:26Z</time>
      </trkpt>
      <trkpt lat="47.30709" lon="4.89715">
        <ele>396.3</ele>
        <time>2019-02-26T15:49:35Z</time>
      </trkpt>
      <trkpt lat="47.30718" lon="4.89719">
        <ele>395.4</ele>
        <time>2019-02-26T15:49:41Z</time>
      </trkpt>
      <trkpt lat="47.30728" lon="4.89723">
        <ele>394.4</ele>
        <time>2019-02-26T15:49:48Z</time>
      </trkpt>
      <trkpt lat="47.30737" lon="4.89727">
        <ele>393.3</ele>
        <time>2019-02-26T15:49:55Z</time>
      </trkpt>
      <trkpt lat="47.30746" lon="4.89732">
        <ele>392.4</ele>
        <time>2019-02-26T15:50:01Z</time>
      </trkpt>
      <trkpt lat="47.30753" lon="4.8974">
        <ele>391.5</ele>
        <time>2019-02-26T15:50:07Z</time>
      </trkpt>
      <trkpt lat="47.30758" lon="4.89751">
        <ele>391.1</ele>
        <time>2019-02-26T15:50:14Z</time>
      </trkpt>
      <trkpt lat="47.30764" lon="4.89763">
        <ele>390.8</ele>
        <time>2019-02-26T15:50:43Z</time>
      </trkpt>
      <trkpt lat="47.30771" lon="4.89772">
        <ele>390.3</ele>
        <time>2019-02-26T15:51:05Z</time>
      </trkpt>
      <trkpt lat="47.30776" lon="4.89784">
        <ele>390</ele>
        <time>2019-02-26T15:51:12Z</time>
      </trkpt>
      <trkpt lat="47.3078" lon="4.89796">
        <ele>389.8</ele>
        <time>2019-02-26T15:51:20Z</time>
      </trkpt>
      <trkpt lat="47.30784" lon="4.89809">
        <ele>389.7</ele>
        <time>2019-02-26T15:51:28Z</time>
      </trkpt>
      <trkpt lat="47.30789" lon="4.89821">
        <ele>389.5</ele>
        <time>2019-02-26T15:51:37Z</time>
      </trkpt>
      <trkpt lat="47.30794" lon="4.89832">
        <ele>389.2</ele>
        <time>2019-02-26T15:51:46Z</time>
      </trkpt>
      <trkpt lat="47.30801" lon="4.89841">
        <ele>389</ele>
        <time>2019-02-26T15:51:52Z</time>
      </trkpt>
      <trkpt lat="47.30807" lon="4.89851">
        <ele>389.1</ele>
        <time>2019-02-26T15:51:59Z</time>
      </trkpt>
      <trkpt lat="47.30811" lon="4.89864">
        <ele>389.3</ele>
        <time>2019-02-26T15:52:09Z</time>
      </trkpt>
      <trkpt lat="47.30816" lon="4.89877">
        <ele>389.7</ele>
        <time>2019-02-26T15:52:17Z</time>
      </trkpt>
      <trkpt lat="47.3082" lon="4.8989">
        <ele>389.9</ele>
        <time>2019-02-26T15:52:26Z</time>
      </trkpt>
      <trkpt lat="47.30826" lon="4.89901">
        <ele>390</ele>
        <time>2019-02-26T15:52:34Z</time>
      </trkpt>
      <trkpt lat="47.30832" lon="4.89912">
        <ele>389.9</ele>
        <time>2019-02-26T15:52:42Z</time>
      </trkpt>
      <trkpt lat="47.30838" lon="4.89923">
        <ele>389.8</ele>
        <time>2019-02-26T15:52:49Z</time>
      </trkpt>
      <trkpt lat="47.30842" lon="4.89935">
        <ele>390</ele>
        <time>2019-02-26T15:52:56Z</time>
      </trkpt>
      <trkpt lat="47.30845" lon="4.89948">
        <ele>390.2</ele>
        <time>2019-02-26T15:53:04Z</time>
      </trkpt>
      <trkpt lat="47.30849" lon="4.8996">
        <ele>390.3</ele>
        <time>2019-02-26T15:53:12Z</time>
      </trkpt>
      <trkpt lat="47.30855" lon="4.89972">
        <ele>390.1</ele>
        <time>2019-02-26T15:53:20Z</time>
      </trkpt>
      <trkpt lat="47.30859" lon="4.89984">
        <ele>390</ele>
        <time>2019-02-26T15:53:27Z</time>
      </trkpt>
      <trkpt lat="47.30863" lon="4.89997">
        <ele>389.9</ele>
        <time>2019-02-26T15:53:34Z</time>
      </trkpt>
      <trkpt lat="47.30867" lon="4.9001">
        <ele>389.4</ele>
        <time>2019-02-26T15:53:40Z</time>
      </trkpt>
      <trkpt lat="47.30871" lon="4.90023">
        <ele>388.8</ele>
        <time>2019-02-26T15:53:48Z</time>
      </trkpt>
      <trkpt lat="47.30874" lon="4.90036">
        <ele>388.4</ele>
        <time>2019-02-26T15:53:58Z</time>
      </trkpt>
      <trkpt lat="47.30877" lon="4.90049">
        <ele>388.1</ele>
        <time>2019-02-26T15:54:06Z</time>
      </trkpt>
      <trkpt lat="47.30879" lon="4.90062">
        <ele>387.8</ele>
        <time>2019-02-26T15:54:15Z</time>
      </trkpt>
      <trkpt lat="47.30883" lon="4.90076">
        <ele>387.6</ele>
        <time>2019-02-26T15:54:23Z</time>
      </trkpt>
      <trkpt lat="47.30886" lon="4.90089">
        <ele>387.4</ele>
        <time>2019-02-26T15:54:31Z</time>
      </trkpt>
      <trkpt lat="47.30889" lon="4.90103">
        <ele>387.1</ele>
        <time>2019-02-26T15:54:40Z</time>
      </trkpt>
      <trkpt lat="47.30892" lon="4.90115">
        <ele>386.9</ele>
        <time>2019-02-26T15:54:48Z</time>
      </trkpt>
      <trkpt lat="47.30895" lon="4.90129">
        <ele>386.7</ele>
        <time>2019-02-26T15:54:56Z</time>
      </trkpt>
      <trkpt lat="47.30898" lon="4.90143">
        <ele>386.6</ele>
        <time>2019-02-26T15:55:03Z</time>
      </trkpt>
      <trkpt lat="47.30898" lon="4.90156">
        <ele>386.7</ele>
        <time>2019-02-26T15:55:46Z</time>
      </trkpt>
      <trkpt lat="47.30901" lon="4.90169">
        <ele>386.5</ele>
        <time>2019-02-26T15:55:54Z</time>
      </trkpt>
      <trkpt lat="47.30905" lon="4.90182">
        <ele>386.7</ele>
        <time>2019-02-26T15:56:02Z</time>
      </trkpt>
      <trkpt lat="47.30908" lon="4.90196">
        <ele>386.8</ele>
        <time>2019-02-26T15:56:11Z</time>
      </trkpt>
      <trkpt lat="47.30912" lon="4.90209">
        <ele>386.9</ele>
        <time>2019-02-26T15:56:20Z</time>
      </trkpt>
      <trkpt lat="47.30915" lon="4.90222">
        <ele>387.1</ele>
        <time>2019-02-26T15:56:29Z</time>
      </trkpt>
      <trkpt lat="47.30917" lon="4.90236">
        <ele>387.5</ele>
        <time>2019-02-26T15:56:37Z</time>
      </trkpt>
      <trkpt lat="47.30918" lon="4.9025">
        <ele>387.9</ele>
        <time>2019-02-26T15:56:45Z</time>
      </trkpt>
      <trkpt lat="47.30915" lon="4.90264">
        <ele>388.6</ele>
        <time>2019-02-26T15:56:51Z</time>
      </trkpt>
      <trkpt lat="47.30915" lon="4.90278">
        <ele>389.1</ele>
        <time>2019-02-26T15:56:59Z</time>
      </trkpt>
      <trkpt lat="47.30916" lon="4.90293">
        <ele>389.5</ele>
        <time>2019-02-26T15:57:07Z</time>
      </trkpt>
      <trkpt lat="47.30912" lon="4.90305">
        <ele>390.2</ele>
        <time>2019-02-26T15:57:15Z</time>
      </trkpt>
      <trkpt lat="47.30905" lon="4.90314">
        <ele>390.8</ele>
        <time>2019-02-26T15:57:23Z</time>
      </trkpt>
      <trkpt lat="47.30901" lon="4.9032">
        <ele>391.2</ele>
        <time>2019-02-26T15:57:49Z</time>
      </trkpt>
    </trkseg>
  </trk>
</gpx>